Time,TemperatureF,DewpointF,PressureIn,WindDirection,WindDirectionDegrees,WindSpeedMPH,WindSpeedGustMPH,Humidity,HourlyPrecipIn,Conditions,Clouds,dailyrainin,SoftwareType,DateUTC
2013-09-28 00:01:00,78.6,71.6,29.84,NNE,25,0.0,0.0,79,0.00,,SCT020,0.00,VWS V14.01,2013-09-28 04:01:00,
2013-09-28 00:02:00,78.5,71.4,29.84,NNE,25,0.0,1.0,79,0.00,,SCT020,0.00,VWS V14.01,2013-09-28 04:02:00,
2013-09-28 00:06:00,78.5,71.4,29.84,NNE,25,0.0,0.0,79,0.00,,SCT020,0.00,VWS V14.01,2013-09-28 04:06:00,
2013-09-28 00:09:00,78.5,71.4,29.84,NNE,25,1.0,1.0,79,0.00,,SCT020,0.00,VWS V14.01,2013-09-28 04:09:00,
2013-09-28 00:10:00,78.5,71.4,29.84,NNE,25,0.0,1.0,79,0.00,,SCT020,0.00,VWS V14.01,2013-09-28 04:10:00,
2013-09-28 00:12:00,78.5,71.4,29.84,NNE,25,0.0,0.0,79,0.00,,SCT020,0.00,VWS V14.01,2013-09-28 04:12:00,
2013-09-28 00:13:00,78.5,71.4,29.84,NNE,25,0.0,0.0,79,0.00,,SCT020,0.00,VWS V14.01,2013-09-28 04:13:00,
2013-09-28 00:15:00,78.5,71.4,29.84,NNE,25,0.0,0.0,79,0.00,,SCT020,0.00,VWS V14.01,2013-09-28 04:15:00,
2013-09-28 00:19:00,78.5,71.4,29.84,NNE,25,0.0,0.0,79,0.00,,SCT020,0.00,VWS V14.01,2013-09-28 04:19:00,
2013-09-28 00:21:00,78.5,71.4,29.84,NNE,25,0.0,0.0,79,0.00,,SCT020,0.00,VWS V14.01,2013-09-28 04:21:00,
2013-09-28 00:25:00,78.5,71.4,29.84,NNE,25,0.0,0.0,79,0.00,,SCT020,0.00,VWS V14.01,2013-09-28 04:25:00,
2013-09-28 00:26:00,78.5,71.4,29.84,NNE,25,0.0,0.0,79,0.00,,SCT020,0.00,VWS V14.01,2013-09-28 04:26:00,
2013-09-28 00:27:00,78.5,71.4,29.84,NNE,25,0.0,0.0,79,0.00,,SCT020,0.00,VWS V14.01,2013-09-28 04:27:00,
2013-09-28 00:31:00,78.5,71.4,29.83,NNE,25,0.0,0.0,79,0.00,,SCT020,0.00,VWS V14.01,2013-09-28 04:31:00,
2013-09-28 00:33:00,78.3,71.3,29.83,NNE,25,0.0,0.0,79,0.00,,SCT020,0.00,VWS V14.01,2013-09-28 04:33:00,
2013-09-28 00:35:00,78.3,71.3,29.83,NNE,25,0.0,0.0,79,0.00,,SCT020,0.00,VWS V14.01,2013-09-28 04:35:00,
2013-09-28 00:40:00,78.3,71.3,29.83,NNE,25,0.0,0.0,79,0.00,,SCT020,0.00,VWS V14.01,2013-09-28 04:40:00,
2013-09-28 00:42:00,78.3,71.6,29.83,NNE,25,0.0,1.0,80,0.00,,SCT020,0.00,VWS V14.01,2013-09-28 04:42:00,
2013-09-28 00:47:00,78.3,71.6,29.83,NNE,25,0.0,0.0,80,0.00,,SCT020,0.00,VWS V14.01,2013-09-28 04:47:00,
2013-09-28 00:48:00,78.3,71.6,29.83,NNE,25,0.0,0.0,80,0.00,,SCT020,0.00,VWS V14.01,2013-09-28 04:48:00,
2013-09-28 00:50:00,78.3,71.6,29.83,NNE,25,0.0,0.0,80,0.00,,SCT020,0.00,VWS V14.01,2013-09-28 04:50:00,
2013-09-28 00:52:00,78.3,71.6,29.83,NNE,25,0.0,0.0,80,0.00,,SCT020,0.00,VWS V14.01,2013-09-28 04:52:00,
2013-09-28 00:53:00,78.3,71.6,29.83,NNE,25,0.0,1.0,80,0.00,,SCT020,0.00,VWS V14.01,2013-09-28 04:53:00,
2013-09-28 00:55:00,78.1,71.4,29.83,NNE,25,0.0,0.0,80,0.00,,SCT020,0.00,VWS V14.01,2013-09-28 04:55:00,
2013-09-28 00:57:00,78.1,71.4,29.83,NNE,25,0.0,0.0,80,0.00,,SCT020,0.00,VWS V14.01,2013-09-28 04:57:00,
2013-09-28 00:58:00,78.1,71.4,29.83,NNE,25,0.0,0.0,80,0.00,,SCT020,0.00,VWS V14.01,2013-09-28 04:58:00,
2013-09-28 01:00:00,78.1,71.4,29.83,NNE,25,0.0,0.0,80,0.00,,SCT020,0.00,VWS V14.01,2013-09-28 05:00:00,
2013-09-28 01:03:00,78.1,71.4,29.83,NNE,25,0.0,0.0,80,0.00,,SCT020,0.00,VWS V14.01,2013-09-28 05:03:00,
2013-09-28 01:06:00,78.1,71.8,29.83,NNE,25,0.0,2.0,81,0.00,,SCT020,0.00,VWS V14.01,2013-09-28 05:06:00,
2013-09-28 01:07:00,78.1,71.8,29.83,NNE,25,0.0,1.0,81,0.00,,SCT020,0.00,VWS V14.01,2013-09-28 05:07:00,
2013-09-28 01:10:00,78.1,71.8,29.83,NNE,25,0.0,2.0,81,0.00,,SCT020,0.00,VWS V14.01,2013-09-28 05:10:00,
2013-09-28 01:12:00,78.1,71.8,29.83,NNE,24,1.0,4.0,81,0.00,,SCT020,0.00,VWS V14.01,2013-09-28 05:12:00,
2013-09-28 01:15:00,78.1,71.8,29.83,NNE,24,0.0,1.0,81,0.00,,SCT020,0.00,VWS V14.01,2013-09-28 05:15:00,
2013-09-28 01:18:00,78.1,72.2,29.83,NNE,27,1.0,2.0,82,0.00,,SCT020,0.00,VWS V14.01,2013-09-28 05:18:00,
2013-09-28 01:19:00,78.1,72.2,29.83,NNE,27,1.0,2.0,82,0.00,,SCT020,0.00,VWS V14.01,2013-09-28 05:19:00,
2013-09-28 01:24:00,78.3,72.4,29.83,NE,47,2.0,4.0,82,0.00,,SCT020,0.00,VWS V14.01,2013-09-28 05:24:00,
2013-09-28 01:25:00,78.3,72.4,29.83,NE,48,2.0,2.0,82,0.00,,SCT020,0.00,VWS V14.01,2013-09-28 05:25:00,
2013-09-28 01:26:00,78.3,72.4,29.83,NE,54,4.0,4.0,82,0.00,,SCT020,0.00,VWS V14.01,2013-09-28 05:26:00,
2013-09-28 01:28:00,78.3,72.4,29.83,NE,41,1.0,6.0,82,0.01,,SCT020,0.01,VWS V14.01,2013-09-28 05:28:00,
2013-09-28 01:30:00,78.3,72.4,29.83,NE,41,0.0,2.0,82,0.01,,SCT020,0.01,VWS V14.01,2013-09-28 05:30:00,
2013-09-28 01:32:00,78.3,72.7,29.83,ENE,73,2.0,2.0,83,0.02,,SCT020,0.02,VWS V14.01,2013-09-28 05:32:00,
2013-09-28 01:33:00,78.3,72.7,29.83,ENE,73,0.0,2.0,83,0.02,,SCT020,0.02,VWS V14.01,2013-09-28 05:33:00,
2013-09-28 01:35:00,78.3,72.7,29.83,ENE,73,0.0,1.0,83,0.02,,SCT020,0.02,VWS V14.01,2013-09-28 05:35:00,
2013-09-28 01:38:00,78.3,72.7,29.83,ENE,73,0.0,0.0,83,0.02,,SCT020,0.02,VWS V14.01,2013-09-28 05:38:00,
2013-09-28 01:39:00,78.3,72.7,29.83,ENE,73,0.0,0.0,83,0.02,,SCT020,0.02,VWS V14.01,2013-09-28 05:39:00,
2013-09-28 01:41:00,78.3,72.7,29.83,ENE,73,1.0,2.0,83,0.02,,SCT020,0.02,VWS V14.01,2013-09-28 05:41:00,
2013-09-28 01:42:00,78.3,72.7,29.83,ENE,73,0.0,1.0,83,0.02,,SCT020,0.02,VWS V14.01,2013-09-28 05:42:00,
2013-09-28 01:44:00,78.3,73.1,29.83,ENE,73,0.0,0.0,84,0.02,,SCT020,0.02,VWS V14.01,2013-09-28 05:44:00,
2013-09-28 01:45:00,78.3,73.1,29.82,ENE,69,1.0,2.0,84,0.02,,SCT020,0.02,VWS V14.01,2013-09-28 05:45:00,
2013-09-28 01:46:00,78.1,72.9,29.82,NNW,340,2.0,4.0,84,0.02,,SCT020,0.02,VWS V14.01,2013-09-28 05:46:00,
2013-09-28 01:49:00,78.1,72.9,29.82,NNW,343,0.0,1.0,84,0.02,,SCT020,0.02,VWS V14.01,2013-09-28 05:49:00,
2013-09-28 01:53:00,77.9,72.7,29.82,North,0,1.0,1.0,84,0.02,,SCT020,0.02,VWS V14.01,2013-09-28 05:53:00,
2013-09-28 01:57:00,77.7,72.5,29.82,North,0,0.0,0.0,84,0.02,,SCT020,0.02,VWS V14.01,2013-09-28 05:57:00,
2013-09-28 01:58:00,77.7,72.5,29.82,North,0,0.0,1.0,84,0.02,,SCT020,0.02,VWS V14.01,2013-09-28 05:58:00,
2013-09-28 01:59:00,77.7,72.5,29.82,North,0,1.0,1.0,84,0.02,,SCT020,0.02,VWS V14.01,2013-09-28 05:59:00,
2013-09-28 02:01:00,77.4,71.8,29.82,North,0,0.0,0.0,83,0.02,,SCT020,0.02,VWS V14.01,2013-09-28 06:01:00,
2013-09-28 02:03:00,77.4,71.8,29.82,North,0,0.0,0.0,83,0.02,,SCT020,0.02,VWS V14.01,2013-09-28 06:03:00,
2013-09-28 02:04:00,77.4,71.8,29.82,North,0,0.0,0.0,83,0.02,,SCT020,0.02,VWS V14.01,2013-09-28 06:04:00,
2013-09-28 02:05:00,77.2,71.6,29.82,North,0,0.0,0.0,83,0.02,,SCT020,0.02,VWS V14.01,2013-09-28 06:05:00,
2013-09-28 02:06:00,77.2,72.0,29.82,North,0,0.0,0.0,84,0.02,,SCT020,0.02,VWS V14.01,2013-09-28 06:06:00,
2013-09-28 02:07:00,77.2,72.0,29.82,North,0,0.0,0.0,84,0.02,,SCT020,0.02,VWS V14.01,2013-09-28 06:07:00,
2013-09-28 02:10:00,77.0,71.4,29.82,North,0,0.0,0.0,83,0.02,,SCT020,0.02,VWS V14.01,2013-09-28 06:10:00,
2013-09-28 02:11:00,77.0,71.4,29.82,North,0,0.0,0.0,83,0.02,,SCT020,0.02,VWS V14.01,2013-09-28 06:11:00,
2013-09-28 02:12:00,77.0,71.4,29.82,North,0,0.0,0.0,83,0.02,,SCT020,0.02,VWS V14.01,2013-09-28 06:12:00,
2013-09-28 02:13:00,77.0,71.4,29.82,North,0,1.0,2.0,83,0.02,,SCT020,0.02,VWS V14.01,2013-09-28 06:13:00,
2013-09-28 02:16:00,76.8,71.2,29.82,North,0,0.0,0.0,83,0.02,,SCT020,0.02,VWS V14.01,2013-09-28 06:16:00,
2013-09-28 02:19:00,76.8,71.2,29.82,North,0,0.0,0.0,83,0.02,,SCT020,0.02,VWS V14.01,2013-09-28 06:19:00,
2013-09-28 02:20:00,76.7,71.2,29.82,North,0,0.0,0.0,83,0.02,,SCT020,0.02,VWS V14.01,2013-09-28 06:20:00,
2013-09-28 02:21:00,76.7,71.2,29.82,North,0,0.0,0.0,83,0.02,,SCT020,0.02,VWS V14.01,2013-09-28 06:21:00,
2013-09-28 02:22:00,76.7,71.2,29.82,North,0,0.0,0.0,83,0.02,,SCT020,0.02,VWS V14.01,2013-09-28 06:22:00,
2013-09-28 02:25:00,76.5,71.0,29.82,North,0,0.0,0.0,83,0.02,,SCT020,0.02,VWS V14.01,2013-09-28 06:25:00,
2013-09-28 02:26:00,76.5,71.0,29.82,North,0,0.0,0.0,83,0.02,,SCT020,0.02,VWS V14.01,2013-09-28 06:26:00,
2013-09-28 02:27:00,76.5,71.0,29.82,North,0,0.0,0.0,83,0.02,,SCT020,0.02,VWS V14.01,2013-09-28 06:27:00,
2013-09-28 02:29:00,76.5,71.3,29.82,North,0,0.0,0.0,84,0.01,,SCT020,0.02,VWS V14.01,2013-09-28 06:29:00,
2013-09-28 02:34:00,76.5,71.3,29.81,North,0,0.0,0.0,84,0.00,,SCT020,0.02,VWS V14.01,2013-09-28 06:34:00,
2013-09-28 02:35:00,76.3,71.1,29.81,North,0,0.0,0.0,84,0.00,,SCT020,0.02,VWS V14.01,2013-09-28 06:35:00,
2013-09-28 02:37:00,76.3,71.1,29.81,North,0,0.0,0.0,84,0.00,,SCT020,0.02,VWS V14.01,2013-09-28 06:37:00,
2013-09-28 02:39:00,76.3,71.1,29.81,North,0,0.0,0.0,84,0.00,,SCT020,0.02,VWS V14.01,2013-09-28 06:39:00,
2013-09-28 02:40:00,76.3,71.1,29.81,North,0,0.0,0.0,84,0.00,,SCT020,0.02,VWS V14.01,2013-09-28 06:40:00,
2013-09-28 02:44:00,76.1,71.3,29.81,North,0,0.0,0.0,85,0.00,,SCT020,0.02,VWS V14.01,2013-09-28 06:44:00,
2013-09-28 02:45:00,76.1,71.3,29.80,North,0,0.0,0.0,85,0.00,,SCT020,0.02,VWS V14.01,2013-09-28 06:45:00,
2013-09-28 02:46:00,76.1,71.3,29.80,North,0,0.0,0.0,85,0.00,,SCT020,0.02,VWS V14.01,2013-09-28 06:46:00,
2013-09-28 02:48:00,76.1,71.3,29.80,North,0,0.0,0.0,85,0.00,,SCT020,0.02,VWS V14.01,2013-09-28 06:48:00,
2013-09-28 02:52:00,76.0,71.2,29.80,North,0,0.0,0.0,85,0.00,,SCT020,0.02,VWS V14.01,2013-09-28 06:52:00,
2013-09-28 02:53:00,76.0,71.2,29.80,North,0,0.0,0.0,85,0.00,,SCT020,0.02,VWS V14.01,2013-09-28 06:53:00,
2013-09-28 02:54:00,76.0,71.5,29.80,North,0,0.0,0.0,86,0.00,,SCT020,0.02,VWS V14.01,2013-09-28 06:54:00,
2013-09-28 02:58:00,76.0,71.5,29.80,North,0,0.0,0.0,86,0.00,,SCT020,0.02,VWS V14.01,2013-09-28 06:58:00,
2013-09-28 02:59:00,76.0,71.5,29.80,North,0,0.0,0.0,86,0.00,,SCT020,0.02,VWS V14.01,2013-09-28 06:59:00,
2013-09-28 03:01:00,76.0,71.5,29.80,North,0,0.0,0.0,86,0.00,,SCT020,0.02,VWS V14.01,2013-09-28 07:01:00,
2013-09-28 03:03:00,76.0,71.5,29.80,North,0,0.0,0.0,86,0.00,,SCT020,0.02,VWS V14.01,2013-09-28 07:03:00,
2013-09-28 03:04:00,76.0,71.5,29.80,North,0,0.0,0.0,86,0.00,,SCT020,0.02,VWS V14.01,2013-09-28 07:04:00,
2013-09-28 03:06:00,76.0,71.5,29.80,North,0,0.0,0.0,86,0.00,,SCT020,0.02,VWS V14.01,2013-09-28 07:06:00,
2013-09-28 03:07:00,76.0,71.5,29.80,North,0,0.0,0.0,86,0.00,,SCT020,0.02,VWS V14.01,2013-09-28 07:07:00,
2013-09-28 03:09:00,76.0,71.5,29.80,North,0,0.0,0.0,86,0.00,,SCT020,0.02,VWS V14.01,2013-09-28 07:09:00,
2013-09-28 03:12:00,75.8,71.3,29.80,North,0,0.0,0.0,86,0.00,,SCT020,0.02,VWS V14.01,2013-09-28 07:12:00,
2013-09-28 03:13:00,75.8,71.3,29.80,North,0,1.0,1.0,86,0.00,,SCT020,0.02,VWS V14.01,2013-09-28 07:13:00,
2013-09-28 03:15:00,75.8,71.3,29.80,North,0,0.0,0.0,86,0.00,,SCT020,0.02,VWS V14.01,2013-09-28 07:15:00,
2013-09-28 03:17:00,75.8,71.3,29.80,North,0,0.0,0.0,86,0.00,,SCT020,0.02,VWS V14.01,2013-09-28 07:17:00,
2013-09-28 03:20:00,75.8,71.3,29.80,North,0,0.0,0.0,86,0.00,,SCT020,0.02,VWS V14.01,2013-09-28 07:20:00,
2013-09-28 03:21:00,75.8,71.3,29.80,North,0,0.0,0.0,86,0.00,,SCT020,0.02,VWS V14.01,2013-09-28 07:21:00,
2013-09-28 03:22:00,75.8,71.3,29.80,North,0,0.0,0.0,86,0.00,,SCT020,0.02,VWS V14.01,2013-09-28 07:22:00,
2013-09-28 03:23:00,75.8,71.3,29.80,North,0,0.0,0.0,86,0.00,,SCT020,0.02,VWS V14.01,2013-09-28 07:23:00,
2013-09-28 03:26:00,75.8,71.0,29.80,North,0,0.0,1.0,85,0.00,,SCT020,0.02,VWS V14.01,2013-09-28 07:26:00,
2013-09-28 03:27:00,75.8,71.0,29.80,North,0,0.0,0.0,85,0.00,,SCT020,0.02,VWS V14.01,2013-09-28 07:27:00,
2013-09-28 03:30:00,75.8,71.0,29.80,North,0,0.0,0.0,85,0.00,,SCT020,0.02,VWS V14.01,2013-09-28 07:30:00,
2013-09-28 03:31:00,75.8,70.6,29.80,North,0,0.0,0.0,84,0.00,,SCT020,0.02,VWS V14.01,2013-09-28 07:31:00,
2013-09-28 03:34:00,75.8,70.6,29.80,North,0,0.0,0.0,84,0.00,,SCT020,0.02,VWS V14.01,2013-09-28 07:34:00,
2013-09-28 03:35:00,75.8,70.6,29.80,North,0,0.0,0.0,84,0.00,,SCT020,0.02,VWS V14.01,2013-09-28 07:35:00,
2013-09-28 03:36:00,75.8,70.6,29.80,North,0,0.0,0.0,84,0.00,,SCT020,0.02,VWS V14.01,2013-09-28 07:36:00,
2013-09-28 03:37:00,75.8,70.6,29.80,North,0,0.0,0.0,84,0.00,,SCT020,0.02,VWS V14.01,2013-09-28 07:37:00,
2013-09-28 03:39:00,75.8,70.6,29.80,North,0,0.0,1.0,84,0.00,,SCT020,0.02,VWS V14.01,2013-09-28 07:39:00,
2013-09-28 03:40:00,75.8,70.6,29.80,North,0,0.0,1.0,84,0.00,,SCT020,0.02,VWS V14.01,2013-09-28 07:40:00,
2013-09-28 03:43:00,75.8,70.3,29.80,North,0,0.0,0.0,83,0.00,,SCT020,0.02,VWS V14.01,2013-09-28 07:43:00,
2013-09-28 03:44:00,75.8,70.3,29.80,North,0,0.0,1.0,83,0.00,,SCT020,0.02,VWS V14.01,2013-09-28 07:44:00,
2013-09-28 03:45:00,75.8,70.3,29.80,North,0,0.0,0.0,83,0.00,,SCT020,0.02,VWS V14.01,2013-09-28 07:45:00,
2013-09-28 03:50:00,75.8,70.3,29.80,North,0,0.0,0.0,83,0.00,,SCT020,0.02,VWS V14.01,2013-09-28 07:50:00,
2013-09-28 03:51:00,75.8,70.3,29.80,North,0,0.0,0.0,83,0.00,,SCT020,0.02,VWS V14.01,2013-09-28 07:51:00,
2013-09-28 03:53:00,75.8,70.3,29.80,North,0,0.0,0.0,83,0.00,,SCT020,0.02,VWS V14.01,2013-09-28 07:53:00,
2013-09-28 03:54:00,75.8,70.3,29.80,North,0,0.0,0.0,83,0.00,,SCT020,0.02,VWS V14.01,2013-09-28 07:54:00,
2013-09-28 03:55:00,75.8,70.3,29.80,North,0,0.0,0.0,83,0.00,,SCT020,0.02,VWS V14.01,2013-09-28 07:55:00,
2013-09-28 03:59:00,75.8,70.3,29.80,North,0,0.0,0.0,83,0.00,,SCT020,0.02,VWS V14.01,2013-09-28 07:59:00,
2013-09-28 04:00:00,75.8,70.3,29.80,North,0,0.0,0.0,83,0.00,,SCT020,0.02,VWS V14.01,2013-09-28 08:00:00,
2013-09-28 04:01:00,75.8,70.3,29.80,North,0,0.0,0.0,83,0.00,,SCT020,0.02,VWS V14.01,2013-09-28 08:01:00,
2013-09-28 04:02:00,75.8,70.3,29.80,North,0,0.0,0.0,83,0.00,,SCT020,0.02,VWS V14.01,2013-09-28 08:02:00,
2013-09-28 04:04:00,75.6,70.1,29.80,North,0,0.0,0.0,83,0.00,,SCT020,0.02,VWS V14.01,2013-09-28 08:04:00,
2013-09-28 04:05:00,75.6,70.1,29.80,North,0,0.0,0.0,83,0.00,,SCT020,0.02,VWS V14.01,2013-09-28 08:05:00,
2013-09-28 04:07:00,75.6,70.1,29.80,North,0,0.0,0.0,83,0.00,,SCT020,0.02,VWS V14.01,2013-09-28 08:07:00,
2013-09-28 04:09:00,75.6,70.1,29.80,North,0,0.0,0.0,83,0.00,,SCT020,0.02,VWS V14.01,2013-09-28 08:09:00,
2013-09-28 04:10:00,75.6,70.1,29.80,North,0,0.0,0.0,83,0.00,,SCT020,0.02,VWS V14.01,2013-09-28 08:10:00,
2013-09-28 04:12:00,75.6,70.1,29.80,North,0,0.0,0.0,83,0.00,,SCT020,0.02,VWS V14.01,2013-09-28 08:12:00,
2013-09-28 04:13:00,75.6,70.1,29.80,North,0,0.0,0.0,83,0.00,,SCT020,0.02,VWS V14.01,2013-09-28 08:13:00,
2013-09-28 04:14:00,75.6,70.1,29.80,North,0,0.0,0.0,83,0.00,,SCT020,0.02,VWS V14.01,2013-09-28 08:14:00,
2013-09-28 04:19:00,75.6,70.1,29.80,North,0,0.0,0.0,83,0.00,,SCT020,0.02,VWS V14.01,2013-09-28 08:19:00,
2013-09-28 04:20:00,75.6,70.1,29.80,North,0,0.0,0.0,83,0.00,,SCT020,0.02,VWS V14.01,2013-09-28 08:20:00,
2013-09-28 04:23:00,75.6,70.1,29.80,North,0,0.0,0.0,83,0.00,,SCT020,0.02,VWS V14.01,2013-09-28 08:23:00,
2013-09-28 04:25:00,75.4,69.9,29.80,North,0,0.0,0.0,83,0.00,,SCT020,0.02,VWS V14.01,2013-09-28 08:25:00,
2013-09-28 04:27:00,75.4,69.9,29.80,North,0,0.0,0.0,83,0.00,,SCT020,0.02,VWS V14.01,2013-09-28 08:27:00,
2013-09-28 04:28:00,75.4,69.9,29.80,North,0,0.0,0.0,83,0.00,,SCT020,0.02,VWS V14.01,2013-09-28 08:28:00,
2013-09-28 04:29:00,75.4,69.9,29.80,North,0,0.0,0.0,83,0.00,,SCT020,0.02,VWS V14.01,2013-09-28 08:29:00,
2013-09-28 04:31:00,75.4,69.9,29.80,North,0,0.0,0.0,83,0.00,,SCT020,0.02,VWS V14.01,2013-09-28 08:31:00,
2013-09-28 04:35:00,75.4,70.2,29.80,North,0,0.0,0.0,84,0.00,,SCT020,0.02,VWS V14.01,2013-09-28 08:35:00,
2013-09-28 04:36:00,75.4,69.9,29.80,North,0,0.0,0.0,83,0.00,,SCT020,0.02,VWS V14.01,2013-09-28 08:36:00,
2013-09-28 04:38:00,75.4,70.2,29.80,North,0,0.0,0.0,84,0.00,,SCT020,0.02,VWS V14.01,2013-09-28 08:38:00,
2013-09-28 04:40:00,75.3,70.1,29.80,North,0,0.0,0.0,84,0.00,,SCT020,0.02,VWS V14.01,2013-09-28 08:40:00,
2013-09-28 04:41:00,75.3,70.1,29.80,North,0,0.0,0.0,84,0.00,,SCT020,0.02,VWS V14.01,2013-09-28 08:41:00,
2013-09-28 04:42:00,75.3,70.1,29.80,North,0,0.0,0.0,84,0.00,,SCT020,0.02,VWS V14.01,2013-09-28 08:42:00,
2013-09-28 04:43:00,75.3,70.1,29.80,North,0,0.0,0.0,84,0.00,,SCT020,0.02,VWS V14.01,2013-09-28 08:43:00,
2013-09-28 04:44:00,75.3,70.1,29.80,North,0,0.0,0.0,84,0.00,,SCT020,0.02,VWS V14.01,2013-09-28 08:44:00,
2013-09-28 04:48:00,75.3,70.1,29.80,North,0,0.0,0.0,84,0.00,,SCT020,0.02,VWS V14.01,2013-09-28 08:48:00,
2013-09-28 04:49:00,75.3,70.1,29.80,North,0,0.0,0.0,84,0.00,,SCT020,0.02,VWS V14.01,2013-09-28 08:49:00,
2013-09-28 04:50:00,75.3,70.1,29.80,North,0,0.0,0.0,84,0.00,,SCT020,0.02,VWS V14.01,2013-09-28 08:50:00,
2013-09-28 04:51:00,75.3,70.1,29.80,North,0,0.0,0.0,84,0.00,,SCT020,0.02,VWS V14.01,2013-09-28 08:51:00,
2013-09-28 04:54:00,75.3,70.5,29.80,North,0,0.0,0.0,85,0.00,,SCT020,0.02,VWS V14.01,2013-09-28 08:54:00,
2013-09-28 04:55:00,75.3,70.1,29.80,North,0,0.0,0.0,84,0.00,,SCT020,0.02,VWS V14.01,2013-09-28 08:55:00,
2013-09-28 04:58:00,75.3,70.5,29.80,North,0,0.0,0.0,85,0.00,,SCT020,0.02,VWS V14.01,2013-09-28 08:58:00,
2013-09-28 04:59:00,75.3,70.5,29.80,North,0,0.0,0.0,85,0.00,,SCT020,0.02,VWS V14.01,2013-09-28 08:59:00,
2013-09-28 05:00:00,75.3,70.5,29.80,North,0,0.0,0.0,85,0.00,,SCT020,0.02,VWS V14.01,2013-09-28 09:00:00,
2013-09-28 05:02:00,75.3,70.5,29.80,North,0,0.0,0.0,85,0.00,,SCT020,0.02,VWS V14.01,2013-09-28 09:02:00,
2013-09-28 05:05:00,75.3,70.5,29.80,North,0,0.0,0.0,85,0.00,,SCT020,0.02,VWS V14.01,2013-09-28 09:05:00,
2013-09-28 05:06:00,75.3,70.5,29.80,North,0,0.0,0.0,85,0.00,,SCT020,0.02,VWS V14.01,2013-09-28 09:06:00,
2013-09-28 05:09:00,75.3,70.5,29.80,North,0,0.0,0.0,85,0.00,,SCT020,0.02,VWS V14.01,2013-09-28 09:09:00,
2013-09-28 05:10:00,75.1,70.3,29.80,North,0,0.0,0.0,85,0.00,,SCT020,0.02,VWS V14.01,2013-09-28 09:10:00,
2013-09-28 05:11:00,75.1,70.3,29.80,North,0,0.0,0.0,85,0.00,,SCT020,0.02,VWS V14.01,2013-09-28 09:11:00,
2013-09-28 05:14:00,75.1,70.3,29.80,North,0,0.0,0.0,85,0.00,,SCT020,0.02,VWS V14.01,2013-09-28 09:14:00,
2013-09-28 05:16:00,75.1,70.3,29.80,North,0,0.0,1.0,85,0.00,,SCT020,0.02,VWS V14.01,2013-09-28 09:16:00,
2013-09-28 05:20:00,75.3,70.8,29.80,North,0,0.0,0.0,86,0.00,,SCT020,0.02,VWS V14.01,2013-09-28 09:20:00,
2013-09-28 05:21:00,75.3,70.8,29.80,North,0,0.0,0.0,86,0.00,,SCT020,0.02,VWS V14.01,2013-09-28 09:21:00,
2013-09-28 05:25:00,75.3,70.8,29.80,North,0,0.0,0.0,86,0.00,,SCT020,0.02,VWS V14.01,2013-09-28 09:25:00,
2013-09-28 05:26:00,75.3,70.8,29.80,North,0,0.0,0.0,86,0.00,,SCT020,0.02,VWS V14.01,2013-09-28 09:26:00,
2013-09-28 05:27:00,75.3,70.8,29.80,North,0,0.0,0.0,86,0.00,,SCT020,0.02,VWS V14.01,2013-09-28 09:27:00,
2013-09-28 05:29:00,75.3,70.8,29.80,North,0,0.0,0.0,86,0.00,,SCT020,0.02,VWS V14.01,2013-09-28 09:29:00,
2013-09-28 05:31:00,75.3,70.8,29.80,North,0,0.0,0.0,86,0.00,,SCT020,0.02,VWS V14.01,2013-09-28 09:31:00,
2013-09-28 05:32:00,75.3,70.8,29.80,North,0,0.0,0.0,86,0.00,,SCT020,0.02,VWS V14.01,2013-09-28 09:32:00,
2013-09-28 05:33:00,75.3,70.8,29.80,North,0,0.0,0.0,86,0.00,,SCT020,0.02,VWS V14.01,2013-09-28 09:33:00,
2013-09-28 05:35:00,75.3,70.8,29.80,North,0,0.0,0.0,86,0.00,,SCT020,0.02,VWS V14.01,2013-09-28 09:35:00,
2013-09-28 05:37:00,75.1,70.6,29.80,North,0,0.0,0.0,86,0.00,,SCT020,0.02,VWS V14.01,2013-09-28 09:37:00,
2013-09-28 05:38:00,75.1,70.6,29.80,North,0,0.0,0.0,86,0.00,,SCT020,0.02,VWS V14.01,2013-09-28 09:38:00,
2013-09-28 05:40:00,75.1,70.6,29.80,North,0,0.0,0.0,86,0.00,,SCT020,0.02,VWS V14.01,2013-09-28 09:40:00,
2013-09-28 05:42:00,75.1,70.6,29.80,North,0,0.0,0.0,86,0.00,,SCT020,0.02,VWS V14.01,2013-09-28 09:42:00,
2013-09-28 05:44:00,75.1,70.6,29.80,North,0,0.0,0.0,86,0.00,,SCT020,0.02,VWS V14.01,2013-09-28 09:44:00,
2013-09-28 05:46:00,75.1,70.6,29.80,North,0,0.0,0.0,86,0.00,,SCT020,0.02,VWS V14.01,2013-09-28 09:46:00,
2013-09-28 05:48:00,75.1,70.6,29.80,North,0,0.0,0.0,86,0.00,,SCT020,0.02,VWS V14.01,2013-09-28 09:48:00,
2013-09-28 05:49:00,75.1,70.6,29.80,North,0,0.0,0.0,86,0.00,,SCT020,0.02,VWS V14.01,2013-09-28 09:49:00,
2013-09-28 05:50:00,75.1,70.6,29.80,North,0,0.0,0.0,86,0.00,,SCT020,0.02,VWS V14.01,2013-09-28 09:50:00,
2013-09-28 05:52:00,75.1,70.6,29.80,North,0,0.0,0.0,86,0.00,,SCT020,0.02,VWS V14.01,2013-09-28 09:52:00,
2013-09-28 05:53:00,75.1,70.6,29.80,North,0,0.0,0.0,86,0.00,,SCT020,0.02,VWS V14.01,2013-09-28 09:53:00,
2013-09-28 05:57:00,75.1,71.0,29.80,North,0,0.0,0.0,87,0.00,,SCT020,0.02,VWS V14.01,2013-09-28 09:57:00,
2013-09-28 05:58:00,75.1,71.0,29.80,North,0,0.0,0.0,87,0.00,,SCT020,0.02,VWS V14.01,2013-09-28 09:58:00,
2013-09-28 06:00:00,75.3,71.2,29.81,North,0,0.0,0.0,87,0.00,,SCT020,0.02,VWS V14.01,2013-09-28 10:00:00,
2013-09-28 06:01:00,75.3,71.2,29.81,North,0,0.0,0.0,87,0.00,,SCT020,0.02,VWS V14.01,2013-09-28 10:01:00,
2013-09-28 06:02:00,75.3,71.2,29.81,North,0,0.0,0.0,87,0.00,,SCT020,0.02,VWS V14.01,2013-09-28 10:02:00,
2013-09-28 06:03:00,75.3,71.2,29.81,North,0,0.0,0.0,87,0.00,,SCT020,0.02,VWS V14.01,2013-09-28 10:03:00,
2013-09-28 06:04:00,75.3,71.2,29.81,North,0,0.0,0.0,87,0.00,,SCT020,0.02,VWS V14.01,2013-09-28 10:04:00,
2013-09-28 06:08:00,75.1,71.0,29.81,North,0,0.0,0.0,87,0.00,,SCT020,0.02,VWS V14.01,2013-09-28 10:08:00,
2013-09-28 06:09:00,75.1,71.0,29.81,North,0,0.0,0.0,87,0.00,,SCT020,0.02,VWS V14.01,2013-09-28 10:09:00,
2013-09-28 06:11:00,75.1,71.0,29.81,North,0,0.0,0.0,87,0.00,,SCT020,0.02,VWS V14.01,2013-09-28 10:11:00,
2013-09-28 06:12:00,75.1,71.0,29.81,North,0,0.0,0.0,87,0.00,,SCT020,0.02,VWS V14.01,2013-09-28 10:12:00,
2013-09-28 06:14:00,75.1,71.0,29.81,North,0,0.0,0.0,87,0.00,,SCT020,0.02,VWS V14.01,2013-09-28 10:14:00,
2013-09-28 06:16:00,75.1,71.0,29.81,North,0,0.0,0.0,87,0.00,,SCT020,0.02,VWS V14.01,2013-09-28 10:16:00,
2013-09-28 06:17:00,75.1,71.0,29.81,North,0,0.0,0.0,87,0.00,,SCT020,0.02,VWS V14.01,2013-09-28 10:17:00,
2013-09-28 06:18:00,75.1,71.0,29.81,North,0,0.0,0.0,87,0.00,,SCT020,0.02,VWS V14.01,2013-09-28 10:18:00,
2013-09-28 06:22:00,74.9,70.8,29.81,North,0,0.0,0.0,87,0.00,,SCT020,0.02,VWS V14.01,2013-09-28 10:22:00,
2013-09-28 06:26:00,74.9,70.8,29.81,North,0,0.0,0.0,87,0.00,,SCT020,0.02,VWS V14.01,2013-09-28 10:26:00,
2013-09-28 06:27:00,74.9,70.8,29.81,North,0,0.0,0.0,87,0.00,,SCT020,0.02,VWS V14.01,2013-09-28 10:27:00,
2013-09-28 06:28:00,74.9,70.8,29.81,North,0,0.0,0.0,87,0.00,,SCT020,0.02,VWS V14.01,2013-09-28 10:28:00,
2013-09-28 06:29:00,74.9,70.8,29.81,North,0,0.0,0.0,87,0.00,,SCT020,0.02,VWS V14.01,2013-09-28 10:29:00,
2013-09-28 06:32:00,74.9,70.8,29.82,North,0,0.0,0.0,87,0.00,,SCT020,0.02,VWS V14.01,2013-09-28 10:32:00,
2013-09-28 06:33:00,74.9,70.8,29.82,North,0,0.0,0.0,87,0.00,,SCT020,0.02,VWS V14.01,2013-09-28 10:33:00,
2013-09-28 06:34:00,74.9,70.8,29.82,North,0,0.0,0.0,87,0.00,,SCT020,0.02,VWS V14.01,2013-09-28 10:34:00,
2013-09-28 06:36:00,74.9,70.8,29.82,North,0,0.0,1.0,87,0.00,,SCT020,0.02,VWS V14.01,2013-09-28 10:36:00,
2013-09-28 06:37:00,74.9,70.8,29.82,North,0,0.0,0.0,87,0.00,,SCT020,0.02,VWS V14.01,2013-09-28 10:37:00,
2013-09-28 06:39:00,74.9,70.8,29.82,North,0,0.0,1.0,87,0.00,,SCT020,0.02,VWS V14.01,2013-09-28 10:39:00,
2013-09-28 06:42:00,74.9,70.8,29.82,North,0,0.0,1.0,87,0.00,,SCT020,0.02,VWS V14.01,2013-09-28 10:42:00,
2013-09-28 06:43:00,74.9,71.1,29.82,North,0,0.0,0.0,88,0.00,,SCT020,0.02,VWS V14.01,2013-09-28 10:43:00,
2013-09-28 06:44:00,74.9,71.1,29.82,North,0,0.0,1.0,88,0.00,,SCT020,0.02,VWS V14.01,2013-09-28 10:44:00,
2013-09-28 06:45:00,74.9,71.1,29.82,North,0,0.0,0.0,88,0.00,,SCT020,0.02,VWS V14.01,2013-09-28 10:45:00,
2013-09-28 06:48:00,74.9,71.1,29.82,North,0,0.0,1.0,88,0.00,,SCT020,0.02,VWS V14.01,2013-09-28 10:48:00,
2013-09-28 06:51:00,74.9,71.1,29.82,North,0,0.0,0.0,88,0.00,,SCT020,0.02,VWS V14.01,2013-09-28 10:51:00,
2013-09-28 06:52:00,74.9,71.1,29.82,North,0,0.0,0.0,88,0.00,,SCT020,0.02,VWS V14.01,2013-09-28 10:52:00,
2013-09-28 06:55:00,74.9,71.1,29.82,North,0,0.0,0.0,88,0.00,,SCT020,0.02,VWS V14.01,2013-09-28 10:55:00,
2013-09-28 06:56:00,74.9,71.1,29.82,North,0,0.0,0.0,88,0.00,,SCT020,0.02,VWS V14.01,2013-09-28 10:56:00,
2013-09-28 06:57:00,74.9,71.1,29.82,North,0,0.0,0.0,88,0.00,,SCT020,0.02,VWS V14.01,2013-09-28 10:57:00,
2013-09-28 06:58:00,74.9,71.1,29.82,North,0,0.0,0.0,88,0.00,,SCT020,0.02,VWS V14.01,2013-09-28 10:58:00,
2013-09-28 07:02:00,74.9,71.1,29.82,North,0,0.0,0.0,88,0.00,,SCT020,0.02,VWS V14.01,2013-09-28 11:02:00,
2013-09-28 07:03:00,74.9,71.1,29.82,North,0,0.0,0.0,88,0.00,,SCT020,0.02,VWS V14.01,2013-09-28 11:03:00,
2013-09-28 07:04:00,74.9,71.1,29.82,North,0,0.0,0.0,88,0.00,,SCT020,0.02,VWS V14.01,2013-09-28 11:04:00,
2013-09-28 07:05:00,74.9,71.1,29.82,North,0,0.0,0.0,88,0.00,,SCT020,0.02,VWS V14.01,2013-09-28 11:05:00,
2013-09-28 07:09:00,74.9,71.1,29.82,North,0,0.0,0.0,88,0.00,,SCT020,0.02,VWS V14.01,2013-09-28 11:09:00,
2013-09-28 07:13:00,74.9,71.1,29.82,North,0,0.0,0.0,88,0.00,,SCT020,0.02,VWS V14.01,2013-09-28 11:13:00,
2013-09-28 07:14:00,74.9,71.1,29.82,North,0,0.0,0.0,88,0.00,,SCT020,0.02,VWS V14.01,2013-09-28 11:14:00,
2013-09-28 07:16:00,74.9,71.1,29.82,North,0,0.0,0.0,88,0.00,,SCT020,0.02,VWS V14.01,2013-09-28 11:16:00,
2013-09-28 07:17:00,74.9,71.1,29.82,North,0,0.0,0.0,88,0.00,,SCT020,0.02,VWS V14.01,2013-09-28 11:17:00,
2013-09-28 07:19:00,74.9,71.1,29.82,North,0,0.0,0.0,88,0.00,,SCT020,0.02,VWS V14.01,2013-09-28 11:19:00,
2013-09-28 07:20:00,74.9,71.1,29.82,North,0,0.0,0.0,88,0.00,,SCT020,0.02,VWS V14.01,2013-09-28 11:20:00,
2013-09-28 07:25:00,74.9,71.1,29.82,North,0,0.0,1.0,88,0.00,,SCT020,0.02,VWS V14.01,2013-09-28 11:25:00,
2013-09-28 07:26:00,74.9,71.1,29.82,North,0,0.0,0.0,88,0.00,,SCT020,0.02,VWS V14.01,2013-09-28 11:26:00,
2013-09-28 07:28:00,74.9,71.1,29.82,North,0,0.0,1.0,88,0.00,,SCT020,0.02,VWS V14.01,2013-09-28 11:28:00,
2013-09-28 07:29:00,74.9,71.1,29.82,North,0,0.0,0.0,88,0.00,,SCT020,0.02,VWS V14.01,2013-09-28 11:29:00,
2013-09-28 07:31:00,74.9,71.1,29.83,North,0,0.0,0.0,88,0.00,,SCT020,0.02,VWS V14.01,2013-09-28 11:31:00,
2013-09-28 07:32:00,74.9,71.1,29.83,North,0,0.0,0.0,88,0.00,,SCT020,0.02,VWS V14.01,2013-09-28 11:32:00,
2013-09-28 07:34:00,75.1,71.6,29.83,North,0,0.0,0.0,89,0.00,,SCT020,0.02,VWS V14.01,2013-09-28 11:34:00,
2013-09-28 07:35:00,75.1,71.6,29.83,North,0,1.0,1.0,89,0.00,,SCT020,0.02,VWS V14.01,2013-09-28 11:35:00,
2013-09-28 07:37:00,75.1,71.6,29.83,North,0,0.0,0.0,89,0.00,,SCT020,0.02,VWS V14.01,2013-09-28 11:37:00,
2013-09-28 07:38:00,75.1,71.6,29.83,North,0,1.0,1.0,89,0.00,,SCT020,0.02,VWS V14.01,2013-09-28 11:38:00,
2013-09-28 07:40:00,75.3,71.8,29.83,North,0,0.0,1.0,89,0.00,,SCT020,0.02,VWS V14.01,2013-09-28 11:40:00,
2013-09-28 07:42:00,75.3,71.8,29.83,NNW,333,1.0,4.0,89,0.00,,SCT020,0.02,VWS V14.01,2013-09-28 11:42:00,
2013-09-28 07:44:00,75.4,71.9,29.83,North,0,1.0,1.0,89,0.00,,SCT020,0.02,VWS V14.01,2013-09-28 11:44:00,
2013-09-28 07:45:00,75.4,71.9,29.84,North,0,2.0,4.0,89,0.00,,SCT020,0.02,VWS V14.01,2013-09-28 11:45:00,
2013-09-28 07:47:00,75.6,72.1,29.84,North,0,1.0,2.0,89,0.00,,SCT020,0.02,VWS V14.01,2013-09-28 11:47:00,
2013-09-28 07:48:00,75.6,71.8,29.84,North,0,1.0,1.0,88,0.00,,SCT020,0.02,VWS V14.01,2013-09-28 11:48:00,
2013-09-28 07:49:00,75.6,71.8,29.84,North,0,0.0,1.0,88,0.00,,SCT020,0.02,VWS V14.01,2013-09-28 11:49:00,
2013-09-28 07:52:00,76.0,72.5,29.84,North,0,1.0,1.0,89,0.00,,SCT020,0.02,VWS V14.01,2013-09-28 11:52:00,
2013-09-28 07:54:00,76.0,72.5,29.84,NNW,329,2.0,2.0,89,0.00,,SCT020,0.02,VWS V14.01,2013-09-28 11:54:00,
2013-09-28 07:57:00,76.1,72.3,29.84,North,0,1.0,4.0,88,0.00,,SCT020,0.02,VWS V14.01,2013-09-28 11:57:00,
2013-09-28 07:58:00,76.3,72.5,29.84,North,0,0.0,2.0,88,0.00,,SCT020,0.02,VWS V14.01,2013-09-28 11:58:00,
2013-09-28 07:59:00,76.3,72.5,29.84,North,0,2.0,4.0,88,0.00,,SCT020,0.02,VWS V14.01,2013-09-28 11:59:00,
2013-09-28 08:01:00,76.5,72.3,29.84,North,0,0.0,1.0,87,0.00,,SCT020,0.02,VWS V14.01,2013-09-28 12:01:00,
2013-09-28 08:05:00,76.8,72.6,29.84,NNE,31,2.0,2.0,87,0.00,,SCT020,0.02,VWS V14.01,2013-09-28 12:05:00,
2013-09-28 08:06:00,76.8,72.3,29.84,NNE,31,2.0,2.0,86,0.00,,SCT020,0.02,VWS V14.01,2013-09-28 12:06:00,
2013-09-28 08:10:00,77.2,72.3,29.84,NNE,30,1.0,1.0,85,0.00,,SCT020,0.02,VWS V14.01,2013-09-28 12:10:00,
2013-09-28 08:11:00,77.2,72.3,29.84,NNE,30,1.0,1.0,85,0.00,,SCT020,0.02,VWS V14.01,2013-09-28 12:11:00,
2013-09-28 08:15:00,77.4,72.2,29.85,NNE,14,1.0,4.0,84,0.00,,SCT020,0.02,VWS V14.01,2013-09-28 12:15:00,
2013-09-28 08:18:00,77.7,72.1,29.85,NNE,14,0.0,4.0,83,0.00,,SCT020,0.02,VWS V14.01,2013-09-28 12:18:00,
2013-09-28 08:22:00,78.1,72.2,29.85,NE,37,0.0,2.0,82,0.00,,SCT020,0.02,VWS V14.01,2013-09-28 12:22:00,
2013-09-28 08:24:00,78.3,72.0,29.85,NNW,333,1.0,4.0,81,0.00,,SCT020,0.02,VWS V14.01,2013-09-28 12:24:00,
2013-09-28 08:26:00,78.5,72.2,29.85,NNW,333,2.0,2.0,81,0.00,,SCT020,0.02,VWS V14.01,2013-09-28 12:26:00,
2013-09-28 08:27:00,78.6,71.9,29.85,NNW,347,2.0,2.0,80,0.00,,SCT020,0.02,VWS V14.01,2013-09-28 12:27:00,
2013-09-28 08:30:00,78.8,72.1,29.85,NNW,347,0.0,2.0,80,0.00,,SCT020,0.02,VWS V14.01,2013-09-28 12:30:00,
2013-09-28 08:32:00,79.2,72.5,29.85,NNW,337,1.0,2.0,80,0.00,,SCT020,0.02,VWS V14.01,2013-09-28 12:32:00,
2013-09-28 08:33:00,79.4,72.7,29.85,NNW,337,0.0,1.0,80,0.00,,SCT020,0.02,VWS V14.01,2013-09-28 12:33:00,
2013-09-28 08:36:00,79.6,72.5,29.85,North,350,0.0,2.0,79,0.00,,SCT020,0.02,VWS V14.01,2013-09-28 12:36:00,
2013-09-28 08:38:00,79.9,72.4,29.85,NW,306,1.0,4.0,78,0.00,,SCT020,0.02,VWS V14.01,2013-09-28 12:38:00,
2013-09-28 08:40:00,80.1,72.2,29.85,NNW,330,0.0,0.0,77,0.00,,SCT020,0.02,VWS V14.01,2013-09-28 12:40:00,
2013-09-28 08:42:00,80.3,72.4,29.85,NNE,28,4.0,6.0,77,0.00,,SCT020,0.02,VWS V14.01,2013-09-28 12:42:00,
2013-09-28 08:45:00,80.5,72.2,29.86,NE,49,1.0,4.0,76,0.00,,SCT020,0.02,VWS V14.01,2013-09-28 12:45:00,
2013-09-28 08:46:00,80.5,72.2,29.86,NE,49,0.0,1.0,76,0.00,,SCT020,0.02,VWS V14.01,2013-09-28 12:46:00,
2013-09-28 08:47:00,80.7,72.4,29.86,North,11,0.0,4.0,76,0.00,,SCT020,0.02,VWS V14.01,2013-09-28 12:47:00,
2013-09-28 08:48:00,80.9,72.6,29.86,NNE,14,2.0,2.0,76,0.00,,SCT020,0.02,VWS V14.01,2013-09-28 12:48:00,
2013-09-28 08:51:00,81.2,72.5,29.86,NNE,20,4.0,6.0,75,0.00,,SCT020,0.02,VWS V14.01,2013-09-28 12:51:00,
2013-09-28 08:53:00,81.4,72.3,29.86,NNE,20,0.0,2.0,74,0.00,,SCT020,0.02,VWS V14.01,2013-09-28 12:53:00,
2013-09-28 08:54:00,81.4,72.3,29.86,North,1,2.0,7.0,74,0.00,,SCT020,0.02,VWS V14.01,2013-09-28 12:54:00,
2013-09-28 08:55:00,81.4,71.9,29.86,NE,51,1.0,6.0,73,0.00,,SCT020,0.02,VWS V14.01,2013-09-28 12:55:00,
2013-09-28 08:56:00,81.6,72.1,29.86,North,0,7.0,7.0,73,0.00,,SCT020,0.02,VWS V14.01,2013-09-28 12:56:00,
2013-09-28 08:58:00,81.6,72.1,29.86,NE,38,2.0,4.0,73,0.00,,SCT020,0.02,VWS V14.01,2013-09-28 12:58:00,
2013-09-28 09:00:00,81.6,71.7,29.86,NNE,21,1.0,6.0,72,0.00,,SCT020,0.02,VWS V14.01,2013-09-28 13:00:00,
2013-09-28 09:01:00,81.8,71.9,29.86,NNE,21,0.0,2.0,72,0.00,,SCT020,0.02,VWS V14.01,2013-09-28 13:01:00,
2013-09-28 09:05:00,82.0,72.1,29.86,NNE,18,1.0,6.0,72,0.00,,SCT020,0.02,VWS V14.01,2013-09-28 13:05:00,
2013-09-28 09:06:00,82.0,72.1,29.86,North,359,4.0,6.0,72,0.00,,SCT020,0.02,VWS V14.01,2013-09-28 13:06:00,
2013-09-28 09:08:00,82.2,71.9,29.86,ENE,69,2.0,4.0,71,0.00,,SCT020,0.02,VWS V14.01,2013-09-28 13:08:00,
2013-09-28 09:09:00,82.2,71.9,29.86,ENE,68,1.0,2.0,71,0.00,,SCT020,0.02,VWS V14.01,2013-09-28 13:09:00,
2013-09-28 09:12:00,82.4,72.1,29.86,North,4,2.0,2.0,71,0.00,,SCT020,0.02,VWS V14.01,2013-09-28 13:12:00,
2013-09-28 09:15:00,82.6,72.2,29.86,NNW,339,1.0,4.0,71,0.00,,SCT020,0.02,VWS V14.01,2013-09-28 13:15:00,
2013-09-28 09:16:00,82.6,72.2,29.86,NNW,339,1.0,1.0,71,0.00,,SCT020,0.02,VWS V14.01,2013-09-28 13:16:00,
2013-09-28 09:18:00,82.8,72.4,29.86,NNW,342,0.0,2.0,71,0.00,,SCT020,0.02,VWS V14.01,2013-09-28 13:18:00,
2013-09-28 09:20:00,83.2,72.8,29.86,NNE,23,4.0,4.0,71,0.00,,SCT020,0.02,VWS V14.01,2013-09-28 13:20:00,
2013-09-28 09:22:00,83.4,72.2,29.86,North,3,4.0,6.0,69,0.00,,SCT020,0.02,VWS V14.01,2013-09-28 13:22:00,
2013-09-28 09:25:00,83.4,72.2,29.86,NNE,17,0.0,2.0,69,0.00,,SCT020,0.02,VWS V14.01,2013-09-28 13:25:00,
2013-09-28 09:28:00,83.6,72.4,29.86,NE,41,2.0,4.0,69,0.00,,SCT020,0.02,VWS V14.01,2013-09-28 13:28:00,
2013-09-28 09:30:00,83.6,71.9,29.87,ENE,58,1.0,2.0,68,0.00,,SCT020,0.02,VWS V14.01,2013-09-28 13:30:00,
2013-09-28 09:31:00,83.8,72.1,29.87,NE,41,6.0,6.0,68,0.00,,SCT020,0.02,VWS V14.01,2013-09-28 13:31:00,
2013-09-28 09:33:00,83.8,72.1,29.87,NE,51,1.0,4.0,68,0.00,,SCT020,0.02,VWS V14.01,2013-09-28 13:33:00,
2013-09-28 09:34:00,83.8,72.1,29.87,NE,34,1.0,1.0,68,0.00,,SCT020,0.02,VWS V14.01,2013-09-28 13:34:00,
2013-09-28 09:36:00,84.0,71.9,29.87,NNE,30,2.0,4.0,67,0.00,,SCT020,0.02,VWS V14.01,2013-09-28 13:36:00,
2013-09-28 09:38:00,84.0,71.9,29.87,NNE,27,2.0,7.0,67,0.00,,SCT020,0.02,VWS V14.01,2013-09-28 13:38:00,
2013-09-28 09:39:00,84.0,71.4,29.87,NNE,32,1.0,2.0,66,0.00,,SCT020,0.02,VWS V14.01,2013-09-28 13:39:00,
2013-09-28 09:40:00,84.0,71.4,29.87,NE,56,6.0,7.0,66,0.00,,SCT020,0.02,VWS V14.01,2013-09-28 13:40:00,
2013-09-28 09:41:00,84.0,71.4,29.87,North,11,2.0,6.0,66,0.00,,SCT020,0.02,VWS V14.01,2013-09-28 13:41:00,
2013-09-28 09:43:00,84.0,71.4,29.87,NE,54,6.0,7.0,66,0.00,,SCT020,0.02,VWS V14.01,2013-09-28 13:43:00,
2013-09-28 09:44:00,83.8,71.2,29.87,NE,47,1.0,6.0,66,0.00,,SCT020,0.02,VWS V14.01,2013-09-28 13:44:00,
2013-09-28 09:48:00,84.0,71.9,29.87,ENE,62,4.0,4.0,67,0.00,,SCT020,0.02,VWS V14.01,2013-09-28 13:48:00,
2013-09-28 09:49:00,84.0,71.9,29.87,NE,45,2.0,6.0,67,0.00,,SCT020,0.02,VWS V14.01,2013-09-28 13:49:00,
2013-09-28 09:50:00,84.1,72.0,29.87,ENE,58,2.0,4.0,67,0.00,,SCT020,0.02,VWS V14.01,2013-09-28 13:50:00,
2013-09-28 09:53:00,84.1,71.5,29.87,NNE,24,1.0,2.0,66,0.00,,SCT020,0.02,VWS V14.01,2013-09-28 13:53:00,
2013-09-28 09:54:00,84.3,72.2,29.87,NNE,23,1.0,7.0,67,0.00,,SCT020,0.02,VWS V14.01,2013-09-28 13:54:00,
2013-09-28 09:55:00,84.3,72.2,29.87,North,1,2.0,7.0,67,0.00,,SCT020,0.02,VWS V14.01,2013-09-28 13:55:00,
2013-09-28 09:56:00,84.3,71.7,29.87,ENE,65,6.0,7.0,66,0.00,,SCT020,0.02,VWS V14.01,2013-09-28 13:56:00,
2013-09-28 09:58:00,84.3,71.7,29.87,NNW,339,7.0,7.0,66,0.00,,SCT020,0.02,VWS V14.01,2013-09-28 13:58:00,
2013-09-28 10:00:00,84.5,71.9,29.88,ENE,62,6.0,6.0,66,0.00,,SCT020,0.02,VWS V14.01,2013-09-28 14:00:00,
2013-09-28 10:01:00,84.5,71.9,29.88,East,80,1.0,6.0,66,0.00,,SCT020,0.02,VWS V14.01,2013-09-28 14:01:00,
2013-09-28 10:02:00,84.5,71.9,29.88,NE,55,1.0,2.0,66,0.00,,SCT020,0.02,VWS V14.01,2013-09-28 14:02:00,
2013-09-28 10:03:00,84.5,71.9,29.88,NNE,25,2.0,6.0,66,0.00,,SCT020,0.02,VWS V14.01,2013-09-28 14:03:00,
2013-09-28 10:04:00,84.7,72.1,29.88,NE,41,2.0,4.0,66,0.00,,SCT020,0.02,VWS V14.01,2013-09-28 14:04:00,
2013-09-28 10:05:00,84.7,71.6,29.88,NE,37,1.0,2.0,65,0.00,,SCT020,0.02,VWS V14.01,2013-09-28 14:05:00,
2013-09-28 10:08:00,84.9,71.8,29.88,ENE,69,1.0,6.0,65,0.00,,SCT020,0.02,VWS V14.01,2013-09-28 14:08:00,
2013-09-28 10:09:00,84.9,71.8,29.88,ENE,68,1.0,2.0,65,0.00,,SCT020,0.02,VWS V14.01,2013-09-28 14:09:00,
2013-09-28 10:11:00,85.1,72.0,29.88,ENE,71,4.0,6.0,65,0.00,,SCT020,0.02,VWS V14.01,2013-09-28 14:11:00,
2013-09-28 10:12:00,85.3,71.8,29.88,ENE,71,4.0,4.0,64,0.00,,SCT020,0.02,VWS V14.01,2013-09-28 14:12:00,
2013-09-28 10:13:00,85.3,71.8,29.88,NE,44,1.0,4.0,64,0.00,,SCT020,0.02,VWS V14.01,2013-09-28 14:13:00,
2013-09-28 10:16:00,85.5,72.4,29.88,NNE,31,4.0,4.0,65,0.00,,SCT020,0.02,VWS V14.01,2013-09-28 14:16:00,
2013-09-28 10:18:00,85.5,70.5,29.88,East,83,6.0,7.0,61,0.00,,SCT020,0.02,VWS V14.01,2013-09-28 14:18:00,
2013-09-28 10:19:00,85.5,70.0,29.88,NNE,21,4.0,6.0,60,0.00,,SCT020,0.02,VWS V14.01,2013-09-28 14:19:00,
2013-09-28 10:22:00,85.5,70.5,29.88,East,88,2.0,2.0,61,0.00,,SCT020,0.02,VWS V14.01,2013-09-28 14:22:00,
2013-09-28 10:24:00,85.5,71.0,29.88,ENE,66,2.0,4.0,62,0.00,,SCT020,0.02,VWS V14.01,2013-09-28 14:24:00,
2013-09-28 10:27:00,85.7,70.7,29.88,NNE,17,4.0,6.0,61,0.00,,SCT020,0.02,VWS V14.01,2013-09-28 14:27:00,
2013-09-28 10:28:00,85.7,70.7,29.88,NE,49,4.0,8.0,61,0.00,,SCT020,0.02,VWS V14.01,2013-09-28 14:28:00,
2013-09-28 10:30:00,85.7,70.7,29.88,East,80,4.0,6.0,61,0.00,,SCT020,0.02,VWS V14.01,2013-09-28 14:30:00,
2013-09-28 10:31:00,85.7,70.7,29.88,NNE,32,2.0,4.0,61,0.00,,SCT020,0.02,VWS V14.01,2013-09-28 14:31:00,
2013-09-28 10:33:00,85.9,70.9,29.88,NE,47,6.0,7.0,61,0.00,,SCT020,0.02,VWS V14.01,2013-09-28 14:33:00,
2013-09-28 10:34:00,85.9,69.4,29.88,NNE,16,2.0,6.0,58,0.00,,SCT020,0.02,VWS V14.01,2013-09-28 14:34:00,
2013-09-28 10:36:00,86.1,69.6,29.88,NNE,17,4.0,6.0,58,0.00,,SCT020,0.02,VWS V14.01,2013-09-28 14:36:00,
2013-09-28 10:37:00,86.1,70.1,29.88,NE,42,4.0,4.0,59,0.00,,SCT020,0.02,VWS V14.01,2013-09-28 14:37:00,
2013-09-28 10:38:00,86.1,70.1,29.88,ENE,73,4.0,8.0,59,0.00,,SCT020,0.02,VWS V14.01,2013-09-28 14:38:00,
2013-09-28 10:42:00,86.3,69.8,29.88,NE,51,2.0,7.0,58,0.00,,SCT020,0.02,VWS V14.01,2013-09-28 14:42:00,
2013-09-28 10:43:00,86.3,69.8,29.88,East,88,2.0,2.0,58,0.00,,SCT020,0.02,VWS V14.01,2013-09-28 14:43:00,
2013-09-28 10:46:00,86.5,70.0,29.88,ENE,68,4.0,6.0,58,0.00,,SCT020,0.02,VWS V14.01,2013-09-28 14:46:00,
2013-09-28 10:47:00,86.5,70.0,29.88,ENE,64,2.0,6.0,58,0.00,,SCT020,0.02,VWS V14.01,2013-09-28 14:47:00,
2013-09-28 10:49:00,86.5,70.0,29.88,ENE,62,2.0,4.0,58,0.00,,SCT020,0.02,VWS V14.01,2013-09-28 14:49:00,
2013-09-28 10:50:00,86.5,70.0,29.88,ENE,76,6.0,6.0,58,0.00,,SCT020,0.02,VWS V14.01,2013-09-28 14:50:00,
2013-09-28 10:54:00,86.1,69.6,29.88,East,89,1.0,6.0,58,0.00,,SCT020,0.02,VWS V14.01,2013-09-28 14:54:00,
2013-09-28 10:55:00,86.1,69.6,29.88,ENE,76,0.0,1.0,58,0.00,,SCT020,0.02,VWS V14.01,2013-09-28 14:55:00,
2013-09-28 10:57:00,86.1,69.6,29.88,NNE,27,2.0,4.0,58,0.00,,SCT020,0.02,VWS V14.01,2013-09-28 14:57:00,
2013-09-28 10:59:00,85.9,69.4,29.88,North,7,4.0,6.0,58,0.00,,SCT020,0.02,VWS V14.01,2013-09-28 14:59:00,
2013-09-28 11:00:00,85.9,69.4,29.88,NNE,24,4.0,4.0,58,0.00,,SCT020,0.02,VWS V14.01,2013-09-28 15:00:00,
2013-09-28 11:02:00,85.9,70.4,29.88,ENE,73,4.0,6.0,60,0.00,,SCT020,0.02,VWS V14.01,2013-09-28 15:02:00,
2013-09-28 11:04:00,85.9,70.4,29.88,East,89,4.0,4.0,60,0.00,,SCT020,0.02,VWS V14.01,2013-09-28 15:04:00,
2013-09-28 11:06:00,85.7,70.7,29.88,ESE,114,6.0,7.0,61,0.00,,SCT020,0.02,VWS V14.01,2013-09-28 15:06:00,
2013-09-28 11:07:00,85.3,70.8,29.88,ENE,78,6.0,6.0,62,0.00,,SCT020,0.02,VWS V14.01,2013-09-28 15:07:00,
2013-09-28 11:09:00,85.1,70.6,29.88,ENE,73,4.0,4.0,62,0.00,,SCT020,0.02,VWS V14.01,2013-09-28 15:09:00,
2013-09-28 11:12:00,84.9,70.4,29.88,NNE,31,4.0,4.0,62,0.00,,SCT020,0.02,VWS V14.01,2013-09-28 15:12:00,
2013-09-28 11:14:00,84.7,70.2,29.88,North,0,8.0,9.0,62,0.00,,SCT020,0.02,VWS V14.01,2013-09-28 15:14:00,
2013-09-28 11:15:00,84.5,70.1,29.88,NNE,27,4.0,8.0,62,0.00,,SCT020,0.02,VWS V14.01,2013-09-28 15:15:00,
2013-09-28 11:17:00,84.3,69.9,29.88,East,89,2.0,6.0,62,0.00,,SCT020,0.02,VWS V14.01,2013-09-28 15:17:00,
2013-09-28 11:19:00,84.3,69.9,29.88,NE,45,2.0,7.0,62,0.00,,SCT020,0.02,VWS V14.01,2013-09-28 15:19:00,
2013-09-28 11:23:00,84.1,69.7,29.88,NNE,13,6.0,6.0,62,0.00,,SCT020,0.02,VWS V14.01,2013-09-28 15:23:00,
2013-09-28 11:24:00,84.1,69.7,29.88,NE,42,4.0,7.0,62,0.00,,SCT020,0.02,VWS V14.01,2013-09-28 15:24:00,
2013-09-28 11:25:00,84.1,69.7,29.88,ENE,69,4.0,4.0,62,0.00,,SCT020,0.02,VWS V14.01,2013-09-28 15:25:00,
2013-09-28 11:27:00,84.1,69.7,29.88,ENE,78,6.0,6.0,62,0.00,,SCT020,0.02,VWS V14.01,2013-09-28 15:27:00,
2013-09-28 11:30:00,84.1,69.7,29.88,ENE,59,0.0,4.0,62,0.00,,SCT020,0.02,VWS V14.01,2013-09-28 15:30:00,
2013-09-28 11:31:00,84.1,69.7,29.88,ENE,59,2.0,2.0,62,0.00,,SCT020,0.02,VWS V14.01,2013-09-28 15:31:00,
2013-09-28 11:32:00,84.3,69.9,29.88,ENE,62,0.0,2.0,62,0.00,,SCT020,0.02,VWS V14.01,2013-09-28 15:32:00,
2013-09-28 11:36:00,85.1,70.6,29.88,NE,47,1.0,6.0,62,0.00,,SCT020,0.02,VWS V14.01,2013-09-28 15:36:00,
2013-09-28 11:38:00,85.7,71.2,29.88,NE,55,2.0,4.0,62,0.00,,SCT020,0.02,VWS V14.01,2013-09-28 15:38:00,
2013-09-28 11:40:00,85.9,69.9,29.88,North,6,6.0,6.0,59,0.00,,SCT020,0.02,VWS V14.01,2013-09-28 15:40:00,
2013-09-28 11:41:00,85.9,69.4,29.88,NE,49,2.0,6.0,58,0.00,,SCT020,0.02,VWS V14.01,2013-09-28 15:41:00,
2013-09-28 11:43:00,85.9,69.4,29.88,NE,51,4.0,8.0,58,0.00,,SCT020,0.02,VWS V14.01,2013-09-28 15:43:00,
2013-09-28 11:45:00,86.1,69.1,29.88,North,0,6.0,8.0,57,0.00,,SCT020,0.02,VWS V14.01,2013-09-28 15:45:00,
2013-09-28 11:46:00,86.1,69.6,29.88,NNE,25,2.0,6.0,58,0.00,,SCT020,0.02,VWS V14.01,2013-09-28 15:46:00,
2013-09-28 11:47:00,86.1,69.6,29.88,East,82,6.0,6.0,58,0.00,,SCT020,0.02,VWS V14.01,2013-09-28 15:47:00,
2013-09-28 11:49:00,86.3,69.8,29.88,SE,143,0.0,6.0,58,0.00,,SCT020,0.02,VWS V14.01,2013-09-28 15:49:00,
2013-09-28 11:50:00,86.3,69.8,29.88,East,83,1.0,6.0,58,0.00,,SCT020,0.02,VWS V14.01,2013-09-28 15:50:00,
2013-09-28 11:52:00,86.3,69.3,29.88,East,82,4.0,4.0,57,0.00,,SCT020,0.02,VWS V14.01,2013-09-28 15:52:00,
2013-09-28 11:53:00,86.3,69.3,29.88,ENE,69,4.0,6.0,57,0.00,,SCT020,0.02,VWS V14.01,2013-09-28 15:53:00,
2013-09-28 11:54:00,86.3,69.3,29.88,ENE,73,4.0,7.0,57,0.00,,SCT020,0.02,VWS V14.01,2013-09-28 15:54:00,
2013-09-28 11:58:00,86.3,68.8,29.88,East,89,2.0,4.0,56,0.00,,SCT020,0.02,VWS V14.01,2013-09-28 15:58:00,
2013-09-28 11:59:00,86.3,68.8,29.88,ENE,62,1.0,4.0,56,0.00,,SCT020,0.02,VWS V14.01,2013-09-28 15:59:00,
2013-09-28 12:01:00,86.5,70.0,29.88,ENE,58,2.0,2.0,58,0.00,,SCT020,0.02,VWS V14.01,2013-09-28 16:01:00,
2013-09-28 12:02:00,86.5,69.5,29.88,NE,52,6.0,6.0,57,0.00,,SCT020,0.02,VWS V14.01,2013-09-28 16:02:00,
2013-09-28 12:04:00,86.7,69.7,29.88,East,92,7.0,7.0,57,0.00,,SCT020,0.02,VWS V14.01,2013-09-28 16:04:00,
2013-09-28 12:06:00,86.7,69.7,29.88,NE,44,2.0,6.0,57,0.00,,SCT020,0.02,VWS V14.01,2013-09-28 16:06:00,
2013-09-28 12:07:00,86.7,69.1,29.88,NE,42,2.0,7.0,56,0.00,,SCT020,0.02,VWS V14.01,2013-09-28 16:07:00,
2013-09-28 12:09:00,87.0,68.9,29.88,ENE,72,1.0,2.0,55,0.00,,SCT020,0.02,VWS V14.01,2013-09-28 16:09:00,
2013-09-28 12:13:00,87.4,70.3,29.88,NNE,32,2.0,6.0,57,0.00,,SCT020,0.02,VWS V14.01,2013-09-28 16:13:00,
2013-09-28 12:14:00,87.4,70.3,29.88,NE,45,2.0,6.0,57,0.00,,SCT020,0.02,VWS V14.01,2013-09-28 16:14:00,
2013-09-28 12:18:00,87.4,70.3,29.87,ENE,62,1.0,4.0,57,0.00,,SCT020,0.02,VWS V14.01,2013-09-28 16:18:00,
2013-09-28 12:19:00,87.4,70.3,29.87,ENE,64,2.0,6.0,57,0.00,,SCT020,0.02,VWS V14.01,2013-09-28 16:19:00,
2013-09-28 12:20:00,87.6,70.0,29.87,NNE,30,4.0,7.0,56,0.00,,SCT020,0.02,VWS V14.01,2013-09-28 16:20:00,
2013-09-28 12:21:00,87.6,70.0,29.87,NE,52,4.0,7.0,56,0.00,,SCT020,0.02,VWS V14.01,2013-09-28 16:21:00,
2013-09-28 12:23:00,87.4,69.8,29.87,North,0,6.0,8.0,56,0.00,,SCT020,0.02,VWS V14.01,2013-09-28 16:23:00,
2013-09-28 12:25:00,87.2,69.1,29.87,NE,44,7.0,8.0,55,0.00,,SCT020,0.02,VWS V14.01,2013-09-28 16:25:00,
2013-09-28 12:27:00,87.2,70.1,29.87,East,80,7.0,8.0,57,0.00,,SCT020,0.02,VWS V14.01,2013-09-28 16:27:00,
2013-09-28 12:28:00,87.2,70.1,29.87,NE,34,2.0,7.0,57,0.00,,SCT020,0.02,VWS V14.01,2013-09-28 16:28:00,
2013-09-28 12:30:00,87.2,70.1,29.87,ENE,78,2.0,2.0,57,0.00,,SCT020,0.02,VWS V14.01,2013-09-28 16:30:00,
2013-09-28 12:32:00,87.4,69.3,29.87,East,90,2.0,6.0,55,0.00,,SCT020,0.02,VWS V14.01,2013-09-28 16:32:00,
2013-09-28 12:33:00,87.4,69.3,29.87,ENE,68,4.0,8.0,55,0.00,,SCT020,0.02,VWS V14.01,2013-09-28 16:33:00,
2013-09-28 12:36:00,87.6,70.5,29.87,East,80,1.0,6.0,57,0.00,,SCT020,0.02,VWS V14.01,2013-09-28 16:36:00,
2013-09-28 12:37:00,87.6,70.5,29.87,East,95,0.0,4.0,57,0.00,,SCT020,0.02,VWS V14.01,2013-09-28 16:37:00,
2013-09-28 12:39:00,87.8,69.1,29.87,ENE,75,4.0,4.0,54,0.00,,SCT020,0.02,VWS V14.01,2013-09-28 16:39:00,
2013-09-28 12:40:00,87.8,69.1,29.87,ENE,76,4.0,6.0,54,0.00,,SCT020,0.02,VWS V14.01,2013-09-28 16:40:00,
2013-09-28 12:42:00,88.0,69.3,29.87,East,95,6.0,7.0,54,0.00,,SCT020,0.02,VWS V14.01,2013-09-28 16:42:00,
2013-09-28 12:43:00,88.2,69.5,29.87,ENE,78,2.0,8.0,54,0.00,,SCT020,0.02,VWS V14.01,2013-09-28 16:43:00,
2013-09-28 12:44:00,88.0,69.3,29.87,NE,41,2.0,7.0,54,0.00,,SCT020,0.02,VWS V14.01,2013-09-28 16:44:00,
2013-09-28 12:45:00,88.0,69.3,29.86,NE,49,6.0,6.0,54,0.00,,SCT020,0.02,VWS V14.01,2013-09-28 16:45:00,
2013-09-28 12:48:00,88.0,70.3,29.86,NE,55,2.0,4.0,56,0.00,,SCT020,0.02,VWS V14.01,2013-09-28 16:48:00,
2013-09-28 12:50:00,88.0,69.8,29.86,East,80,1.0,4.0,55,0.00,,SCT020,0.02,VWS V14.01,2013-09-28 16:50:00,
2013-09-28 12:51:00,88.0,71.4,29.86,ENE,76,4.0,4.0,58,0.00,,SCT020,0.02,VWS V14.01,2013-09-28 16:51:00,
2013-09-28 12:54:00,87.4,70.3,29.86,ENE,64,8.0,8.0,57,0.00,,SCT020,0.02,VWS V14.01,2013-09-28 16:54:00,
2013-09-28 12:55:00,87.2,70.1,29.86,ENE,64,7.0,11.0,57,0.00,,SCT020,0.02,VWS V14.01,2013-09-28 16:55:00,
2013-09-28 12:56:00,86.7,70.2,29.86,ENE,73,7.0,7.0,58,0.00,,SCT020,0.02,VWS V14.01,2013-09-28 16:56:00,
2013-09-28 12:58:00,86.5,69.5,29.86,East,82,4.0,6.0,57,0.00,,SCT020,0.02,VWS V14.01,2013-09-28 16:58:00,
2013-09-28 13:01:00,86.1,69.6,29.86,ENE,66,7.0,10.0,58,0.00,,SCT020,0.02,VWS V14.01,2013-09-28 17:01:00,
2013-09-28 13:02:00,85.9,69.4,29.86,ENE,78,4.0,9.0,58,0.00,,SCT020,0.02,VWS V14.01,2013-09-28 17:02:00,
2013-09-28 13:04:00,85.7,69.2,29.86,NE,54,4.0,4.0,58,0.00,,SCT020,0.02,VWS V14.01,2013-09-28 17:04:00,
2013-09-28 13:06:00,85.5,70.0,29.86,ESE,107,2.0,7.0,60,0.00,,SCT020,0.02,VWS V14.01,2013-09-28 17:06:00,
2013-09-28 13:10:00,84.9,70.0,29.86,SE,127,2.0,6.0,61,0.00,,SCT020,0.02,VWS V14.01,2013-09-28 17:10:00,
2013-09-28 13:11:00,84.9,70.0,29.86,ENE,75,2.0,2.0,61,0.00,,SCT020,0.02,VWS V14.01,2013-09-28 17:11:00,
2013-09-28 13:13:00,84.9,70.0,29.86,East,88,7.0,7.0,61,0.00,,SCT020,0.02,VWS V14.01,2013-09-28 17:13:00,
2013-09-28 13:15:00,84.9,70.0,29.86,NE,41,4.0,6.0,61,0.00,,SCT020,0.02,VWS V14.01,2013-09-28 17:15:00,
2013-09-28 13:16:00,84.9,70.0,29.86,East,90,6.0,9.0,61,0.00,,SCT020,0.02,VWS V14.01,2013-09-28 17:16:00,
2013-09-28 13:17:00,84.9,70.0,29.86,ENE,72,4.0,7.0,61,0.00,,SCT020,0.02,VWS V14.01,2013-09-28 17:17:00,
2013-09-28 13:19:00,84.9,70.0,29.86,NE,41,1.0,8.0,61,0.00,,SCT020,0.02,VWS V14.01,2013-09-28 17:19:00,
2013-09-28 13:20:00,85.1,70.2,29.86,ENE,75,4.0,6.0,61,0.00,,SCT020,0.02,VWS V14.01,2013-09-28 17:20:00,
2013-09-28 13:21:00,85.1,70.2,29.86,NE,40,8.0,8.0,61,0.00,,SCT020,0.02,VWS V14.01,2013-09-28 17:21:00,
2013-09-28 13:23:00,85.3,70.3,29.86,ENE,78,1.0,6.0,61,0.00,,SCT020,0.02,VWS V14.01,2013-09-28 17:23:00,
2013-09-28 13:26:00,85.5,69.6,29.86,ENE,71,6.0,9.0,59,0.00,,SCT020,0.02,VWS V14.01,2013-09-28 17:26:00,
2013-09-28 13:28:00,85.9,70.4,29.86,ESE,106,2.0,4.0,60,0.00,,SCT020,0.02,VWS V14.01,2013-09-28 17:28:00,
2013-09-28 13:29:00,86.1,70.6,29.86,ESE,112,7.0,11.0,60,0.00,,SCT020,0.02,VWS V14.01,2013-09-28 17:29:00,
2013-09-28 13:31:00,86.1,70.1,29.85,ENE,73,4.0,9.0,59,0.00,,SCT020,0.02,VWS V14.01,2013-09-28 17:31:00,
2013-09-28 13:35:00,86.5,70.5,29.85,ESE,114,2.0,9.0,59,0.00,,SCT020,0.02,VWS V14.01,2013-09-28 17:35:00,
2013-09-28 13:36:00,86.5,70.0,29.85,East,99,2.0,8.0,58,0.00,,SCT020,0.02,VWS V14.01,2013-09-28 17:36:00,
2013-09-28 13:41:00,86.5,69.5,29.85,ESE,112,4.0,8.0,57,0.00,,SCT020,0.02,VWS V14.01,2013-09-28 17:41:00,
2013-09-28 13:42:00,86.5,70.0,29.85,ENE,69,4.0,4.0,58,0.00,,SCT020,0.02,VWS V14.01,2013-09-28 17:42:00,
2013-09-28 13:44:00,86.5,69.5,29.85,ENE,76,6.0,8.0,57,0.00,,SCT020,0.02,VWS V14.01,2013-09-28 17:44:00,
2013-09-28 13:46:00,86.5,69.5,29.85,NE,52,4.0,6.0,57,0.00,,SCT020,0.02,VWS V14.01,2013-09-28 17:46:00,
2013-09-28 13:49:00,85.9,69.4,29.85,ENE,76,7.0,7.0,58,0.00,,SCT020,0.02,VWS V14.01,2013-09-28 17:49:00,
2013-09-28 13:50:00,85.9,69.4,29.85,East,88,4.0,10.0,58,0.00,,SCT020,0.02,VWS V14.01,2013-09-28 17:50:00,
2013-09-28 13:51:00,85.7,69.2,29.85,East,89,6.0,7.0,58,0.00,,SCT020,0.02,VWS V14.01,2013-09-28 17:51:00,
2013-09-28 13:53:00,85.9,68.9,29.85,NNE,16,2.0,6.0,57,0.00,,SCT020,0.02,VWS V14.01,2013-09-28 17:53:00,
2013-09-28 13:55:00,86.3,69.3,29.85,ESE,110,4.0,7.0,57,0.00,,SCT020,0.02,VWS V14.01,2013-09-28 17:55:00,
2013-09-28 13:57:00,86.7,69.1,29.85,ENE,62,6.0,8.0,56,0.00,,SCT020,0.02,VWS V14.01,2013-09-28 17:57:00,
2013-09-28 14:02:00,86.1,68.6,29.84,ENE,72,4.0,8.0,56,0.00,,SCT020,0.02,VWS V14.01,2013-09-28 18:02:00,
2013-09-28 14:03:00,86.3,68.8,29.84,ENE,69,6.0,6.0,56,0.00,,SCT020,0.02,VWS V14.01,2013-09-28 18:03:00,
2013-09-28 14:04:00,86.3,69.3,29.84,ENE,71,7.0,9.0,57,0.00,,SCT020,0.02,VWS V14.01,2013-09-28 18:04:00,
2013-09-28 14:06:00,86.5,69.5,29.84,East,90,6.0,9.0,57,0.00,,SCT020,0.02,VWS V14.01,2013-09-28 18:06:00,
2013-09-28 14:07:00,86.7,69.1,29.84,East,92,2.0,8.0,56,0.00,,SCT020,0.02,VWS V14.01,2013-09-28 18:07:00,
2013-09-28 14:11:00,86.7,69.7,29.84,ESE,109,4.0,6.0,57,0.00,,SCT020,0.02,VWS V14.01,2013-09-28 18:11:00,
2013-09-28 14:12:00,86.7,69.7,29.84,ESE,112,4.0,9.0,57,0.00,,SCT020,0.02,VWS V14.01,2013-09-28 18:12:00,
2013-09-28 14:13:00,87.0,69.9,29.84,ESE,104,6.0,8.0,57,0.00,,SCT020,0.02,VWS V14.01,2013-09-28 18:13:00,
2013-09-28 14:16:00,87.2,70.1,29.83,East,95,4.0,4.0,57,0.00,,SCT020,0.02,VWS V14.01,2013-09-28 18:16:00,
2013-09-28 14:17:00,87.4,70.3,29.83,ESE,112,10.0,10.0,57,0.00,,SCT020,0.02,VWS V14.01,2013-09-28 18:17:00,
2013-09-28 14:18:00,87.4,69.3,29.83,ESE,112,7.0,11.0,55,0.00,,SCT020,0.02,VWS V14.01,2013-09-28 18:18:00,
2013-09-28 14:20:00,87.4,69.3,29.83,ENE,75,2.0,9.0,55,0.00,,SCT020,0.02,VWS V14.01,2013-09-28 18:20:00,
2013-09-28 14:25:00,87.2,69.6,29.83,East,83,7.0,7.0,56,0.00,,SCT020,0.02,VWS V14.01,2013-09-28 18:25:00,
2013-09-28 14:26:00,87.2,69.6,29.83,East,80,6.0,8.0,56,0.00,,SCT020,0.02,VWS V14.01,2013-09-28 18:26:00,
2013-09-28 14:31:00,86.5,68.4,29.83,NE,51,9.0,13.0,55,0.00,,SCT020,0.02,VWS V14.01,2013-09-28 18:31:00,
2013-09-28 14:32:00,86.3,68.2,29.83,East,86,4.0,9.0,55,0.00,,SCT020,0.02,VWS V14.01,2013-09-28 18:32:00,
2013-09-28 14:33:00,86.3,68.2,29.83,ESE,120,6.0,7.0,55,0.00,,SCT020,0.02,VWS V14.01,2013-09-28 18:33:00,
2013-09-28 14:34:00,86.1,68.6,29.83,ESE,121,4.0,8.0,56,0.00,,SCT020,0.02,VWS V14.01,2013-09-28 18:34:00,
2013-09-28 14:38:00,86.5,69.5,29.83,ENE,76,6.0,7.0,57,0.00,,SCT020,0.02,VWS V14.01,2013-09-28 18:38:00,
2013-09-28 14:42:00,86.5,69.5,29.83,East,95,2.0,9.0,57,0.00,,SCT020,0.02,VWS V14.01,2013-09-28 18:42:00,
2013-09-28 14:43:00,86.5,70.0,29.83,ESE,107,4.0,7.0,58,0.00,,SCT020,0.02,VWS V14.01,2013-09-28 18:43:00,
2013-09-28 14:45:00,86.1,69.1,29.83,ENE,62,9.0,11.0,57,0.00,,SCT020,0.02,VWS V14.01,2013-09-28 18:45:00,
2013-09-28 14:48:00,85.7,69.2,29.83,East,80,4.0,10.0,58,0.00,,SCT020,0.02,VWS V14.01,2013-09-28 18:48:00,
2013-09-28 14:50:00,85.9,70.4,29.83,East,90,4.0,6.0,60,0.00,,SCT020,0.02,VWS V14.01,2013-09-28 18:50:00,
2013-09-28 14:53:00,86.1,70.6,29.83,East,83,7.0,9.0,60,0.00,,SCT020,0.02,VWS V14.01,2013-09-28 18:53:00,
2013-09-28 14:54:00,86.1,70.6,29.83,NE,54,8.0,8.0,60,0.00,,SCT020,0.02,VWS V14.01,2013-09-28 18:54:00,
2013-09-28 14:55:00,86.1,69.6,29.83,ENE,75,2.0,8.0,58,0.00,,SCT020,0.02,VWS V14.01,2013-09-28 18:55:00,
2013-09-28 14:57:00,85.9,69.4,29.83,ENE,75,6.0,7.0,58,0.00,,SCT020,0.02,VWS V14.01,2013-09-28 18:57:00,
2013-09-28 15:02:00,86.5,70.0,29.83,ENE,73,4.0,7.0,58,0.00,,SCT020,0.02,VWS V14.01,2013-09-28 19:02:00,
2013-09-28 15:03:00,86.5,70.0,29.83,ENE,73,6.0,8.0,58,0.00,,SCT020,0.02,VWS V14.01,2013-09-28 19:03:00,
2013-09-28 15:05:00,86.3,69.3,29.83,ESE,117,4.0,7.0,57,0.00,,SCT020,0.02,VWS V14.01,2013-09-28 19:05:00,
2013-09-28 15:06:00,86.3,68.8,29.83,East,86,4.0,7.0,56,0.00,,SCT020,0.02,VWS V14.01,2013-09-28 19:06:00,
2013-09-28 15:08:00,86.1,69.6,29.83,SE,127,2.0,8.0,58,0.00,,SCT020,0.02,VWS V14.01,2013-09-28 19:08:00,
2013-09-28 15:09:00,85.9,69.4,29.83,East,100,9.0,9.0,58,0.00,,SCT020,0.02,VWS V14.01,2013-09-28 19:09:00,
2013-09-28 15:13:00,85.5,69.1,29.83,ESE,102,9.0,10.0,58,0.00,,SCT020,0.02,VWS V14.01,2013-09-28 19:13:00,
2013-09-28 15:15:00,85.7,69.2,29.82,ENE,72,2.0,7.0,58,0.00,,SCT020,0.02,VWS V14.01,2013-09-28 19:15:00,
2013-09-28 15:19:00,86.1,68.6,29.82,ESE,117,4.0,7.0,56,0.00,,SCT020,0.02,VWS V14.01,2013-09-28 19:19:00,
2013-09-28 15:21:00,86.1,68.6,29.82,ENE,68,7.0,9.0,56,0.00,,SCT020,0.02,VWS V14.01,2013-09-28 19:21:00,
2013-09-28 15:24:00,86.3,68.8,29.82,East,100,7.0,9.0,56,0.00,,SCT020,0.02,VWS V14.01,2013-09-28 19:24:00,
2013-09-28 15:26:00,86.3,69.3,29.82,SSE,148,4.0,6.0,57,0.00,,SCT020,0.02,VWS V14.01,2013-09-28 19:26:00,
2013-09-28 15:28:00,86.5,69.5,29.82,East,97,8.0,8.0,57,0.00,,SCT020,0.02,VWS V14.01,2013-09-28 19:28:00,
2013-09-28 15:30:00,86.5,69.0,29.82,ENE,71,4.0,4.0,56,0.00,,SCT020,0.02,VWS V14.01,2013-09-28 19:30:00,
2013-09-28 15:31:00,86.5,69.0,29.82,ENE,66,2.0,7.0,56,0.00,,SCT020,0.02,VWS V14.01,2013-09-28 19:31:00,
2013-09-28 15:32:00,86.7,69.7,29.82,ESE,117,4.0,8.0,57,0.00,,SCT020,0.02,VWS V14.01,2013-09-28 19:32:00,
2013-09-28 15:36:00,86.7,69.1,29.82,ESE,121,4.0,7.0,56,0.00,,SCT020,0.02,VWS V14.01,2013-09-28 19:36:00,
2013-09-28 15:37:00,87.0,70.4,29.82,East,80,7.0,7.0,58,0.00,,SCT020,0.02,VWS V14.01,2013-09-28 19:37:00,
2013-09-28 15:39:00,86.7,69.7,29.82,ESE,119,9.0,9.0,57,0.00,,SCT020,0.02,VWS V14.01,2013-09-28 19:39:00,
2013-09-28 15:40:00,86.5,69.5,29.82,East,79,6.0,9.0,57,0.00,,SCT020,0.02,VWS V14.01,2013-09-28 19:40:00,
2013-09-28 15:42:00,86.1,71.1,29.82,ESE,123,2.0,7.0,61,0.00,,SCT020,0.02,VWS V14.01,2013-09-28 19:42:00,
2013-09-28 15:48:00,84.7,71.2,29.82,NE,52,7.0,8.0,64,0.00,,SCT020,0.02,VWS V14.01,2013-09-28 19:48:00,
2013-09-28 15:49:00,84.5,71.0,29.82,NE,40,6.0,8.0,64,0.00,,SCT020,0.02,VWS V14.01,2013-09-28 19:49:00,
2013-09-28 15:50:00,84.5,71.0,29.82,NNE,32,6.0,7.0,64,0.00,,SCT020,0.02,VWS V14.01,2013-09-28 19:50:00,
2013-09-28 15:54:00,84.0,71.4,29.82,East,93,1.0,6.0,66,0.00,,SCT020,0.02,VWS V14.01,2013-09-28 19:54:00,
2013-09-28 15:55:00,84.0,71.4,29.82,East,79,2.0,6.0,66,0.00,,SCT020,0.02,VWS V14.01,2013-09-28 19:55:00,
2013-09-28 15:56:00,84.0,71.0,29.82,ENE,73,4.0,4.0,65,0.00,,SCT020,0.02,VWS V14.01,2013-09-28 19:56:00,
2013-09-28 15:58:00,84.0,71.0,29.82,East,82,2.0,6.0,65,0.00,,SCT020,0.02,VWS V14.01,2013-09-28 19:58:00,
2013-09-28 16:00:00,84.0,71.4,29.82,ENE,66,4.0,8.0,66,0.00,,SCT020,0.02,VWS V14.01,2013-09-28 20:00:00,
2013-09-28 16:01:00,84.0,71.4,29.82,ESE,109,2.0,4.0,66,0.00,,SCT020,0.02,VWS V14.01,2013-09-28 20:01:00,
2013-09-28 16:02:00,84.1,72.4,29.82,NNE,27,4.0,7.0,68,0.00,,SCT020,0.02,VWS V14.01,2013-09-28 20:02:00,
2013-09-28 16:06:00,83.6,71.1,29.82,ENE,64,2.0,6.0,66,0.00,,SCT020,0.02,VWS V14.01,2013-09-28 20:06:00,
2013-09-28 16:07:00,83.4,70.9,29.82,NNE,28,2.0,4.0,66,0.00,,SCT020,0.02,VWS V14.01,2013-09-28 20:07:00,
2013-09-28 16:10:00,83.2,71.1,29.82,ENE,73,2.0,7.0,67,0.00,,SCT020,0.02,VWS V14.01,2013-09-28 20:10:00,
2013-09-28 16:13:00,83.0,71.4,29.82,East,88,6.0,7.0,68,0.00,,SCT020,0.02,VWS V14.01,2013-09-28 20:13:00,
2013-09-28 16:14:00,83.2,71.1,29.82,ENE,73,7.0,7.0,67,0.00,,SCT020,0.02,VWS V14.01,2013-09-28 20:14:00,
2013-09-28 16:15:00,83.2,71.1,29.82,East,80,4.0,8.0,67,0.00,,SCT020,0.02,VWS V14.01,2013-09-28 20:15:00,
2013-09-28 16:17:00,83.4,70.9,29.82,East,100,4.0,6.0,66,0.00,,SCT020,0.02,VWS V14.01,2013-09-28 20:17:00,
2013-09-28 16:18:00,83.6,70.1,29.82,ENE,72,7.0,13.0,64,0.00,,SCT020,0.02,VWS V14.01,2013-09-28 20:18:00,
2013-09-28 16:20:00,84.0,70.5,29.82,ENE,72,6.0,6.0,64,0.00,,SCT020,0.02,VWS V14.01,2013-09-28 20:20:00,
2013-09-28 16:22:00,84.1,70.2,29.82,East,86,6.0,8.0,63,0.00,,SCT020,0.02,VWS V14.01,2013-09-28 20:22:00,
2013-09-28 16:25:00,84.5,70.1,29.82,East,93,6.0,6.0,62,0.00,,SCT020,0.02,VWS V14.01,2013-09-28 20:25:00,
2013-09-28 16:27:00,84.7,69.8,29.82,East,85,6.0,6.0,61,0.00,,SCT020,0.02,VWS V14.01,2013-09-28 20:27:00,
2013-09-28 16:28:00,84.9,70.0,29.82,ENE,66,7.0,9.0,61,0.00,,SCT020,0.02,VWS V14.01,2013-09-28 20:28:00,
2013-09-28 16:30:00,85.1,70.2,29.82,NE,56,4.0,8.0,61,0.00,,SCT020,0.02,VWS V14.01,2013-09-28 20:30:00,
2013-09-28 16:31:00,85.1,69.7,29.82,ENE,68,4.0,9.0,60,0.00,,SCT020,0.02,VWS V14.01,2013-09-28 20:31:00,
2013-09-28 16:33:00,84.9,70.4,29.82,ENE,62,7.0,7.0,62,0.00,,SCT020,0.02,VWS V14.01,2013-09-28 20:33:00,
2013-09-28 16:36:00,84.9,70.4,29.82,ENE,76,6.0,6.0,62,0.00,,SCT020,0.02,VWS V14.01,2013-09-28 20:36:00,
2013-09-28 16:37:00,84.9,70.4,29.82,NE,44,4.0,8.0,62,0.00,,SCT020,0.02,VWS V14.01,2013-09-28 20:37:00,
2013-09-28 16:39:00,85.1,70.6,29.82,NE,55,4.0,8.0,62,0.00,,SCT020,0.02,VWS V14.01,2013-09-28 20:39:00,
2013-09-28 16:40:00,85.1,70.2,29.82,East,90,2.0,8.0,61,0.00,,SCT020,0.02,VWS V14.01,2013-09-28 20:40:00,
2013-09-28 16:43:00,84.9,69.0,29.82,East,92,1.0,9.0,59,0.00,,SCT020,0.02,VWS V14.01,2013-09-28 20:43:00,
2013-09-28 16:46:00,84.7,69.3,29.81,ENE,75,7.0,8.0,60,0.00,,SCT020,0.02,VWS V14.01,2013-09-28 20:46:00,
2013-09-28 16:47:00,84.7,69.3,29.81,ESE,116,4.0,7.0,60,0.00,,SCT020,0.02,VWS V14.01,2013-09-28 20:47:00,
2013-09-28 16:50:00,84.7,68.8,29.81,ENE,68,2.0,8.0,59,0.00,,SCT020,0.02,VWS V14.01,2013-09-28 20:50:00,
2013-09-28 16:52:00,84.7,69.8,29.81,East,89,7.0,9.0,61,0.00,,SCT020,0.02,VWS V14.01,2013-09-28 20:52:00,
2013-09-28 16:54:00,84.7,69.8,29.81,ENE,58,4.0,8.0,61,0.00,,SCT020,0.02,VWS V14.01,2013-09-28 20:54:00,
2013-09-28 16:59:00,84.7,69.8,29.81,East,79,4.0,11.0,61,0.00,,SCT020,0.02,VWS V14.01,2013-09-28 20:59:00,
2013-09-28 17:00:00,84.7,69.8,29.81,ENE,71,8.0,9.0,61,0.00,,SCT020,0.02,VWS V14.01,2013-09-28 21:00:00,
2013-09-28 17:01:00,84.7,69.8,29.81,East,90,9.0,9.0,61,0.00,,SCT020,0.02,VWS V14.01,2013-09-28 21:01:00,
2013-09-28 17:02:00,84.7,69.8,29.81,NE,35,7.0,10.0,61,0.00,,SCT020,0.02,VWS V14.01,2013-09-28 21:02:00,
2013-09-28 17:06:00,84.5,69.6,29.81,NE,48,4.0,9.0,61,0.00,,SCT020,0.02,VWS V14.01,2013-09-28 21:06:00,
2013-09-28 17:07:00,84.5,70.1,29.81,ENE,75,2.0,7.0,62,0.00,,SCT020,0.02,VWS V14.01,2013-09-28 21:07:00,
2013-09-28 17:08:00,84.5,70.1,29.81,ENE,72,6.0,7.0,62,0.00,,SCT020,0.02,VWS V14.01,2013-09-28 21:08:00,
2013-09-28 17:12:00,84.7,69.3,29.81,ENE,69,4.0,8.0,60,0.00,,SCT020,0.02,VWS V14.01,2013-09-28 21:12:00,
2013-09-28 17:13:00,84.7,69.3,29.81,SE,131,7.0,8.0,60,0.00,,SCT020,0.02,VWS V14.01,2013-09-28 21:13:00,
2013-09-28 17:14:00,84.7,69.3,29.81,East,90,4.0,7.0,60,0.00,,SCT020,0.02,VWS V14.01,2013-09-28 21:14:00,
2013-09-28 17:18:00,84.5,70.1,29.82,ENE,75,8.0,8.0,62,0.00,,SCT020,0.02,VWS V14.01,2013-09-28 21:18:00,
2013-09-28 17:19:00,84.5,70.1,29.82,East,82,4.0,8.0,62,0.00,,SCT020,0.02,VWS V14.01,2013-09-28 21:19:00,
2013-09-28 17:20:00,84.5,70.1,29.82,SSE,151,2.0,8.0,62,0.00,,SCT020,0.02,VWS V14.01,2013-09-28 21:20:00,
2013-09-28 17:22:00,84.7,70.2,29.82,NE,42,2.0,7.0,62,0.00,,SCT020,0.02,VWS V14.01,2013-09-28 21:22:00,
2013-09-28 17:24:00,84.5,70.1,29.82,East,79,4.0,6.0,62,0.00,,SCT020,0.02,VWS V14.01,2013-09-28 21:24:00,
2013-09-28 17:28:00,84.3,69.9,29.82,East,79,4.0,8.0,62,0.00,,SCT020,0.02,VWS V14.01,2013-09-28 21:28:00,
2013-09-28 17:30:00,84.3,69.9,29.82,East,92,6.0,6.0,62,0.00,,SCT020,0.02,VWS V14.01,2013-09-28 21:30:00,
2013-09-28 17:32:00,84.5,70.1,29.82,SE,131,6.0,8.0,62,0.00,,SCT020,0.02,VWS V14.01,2013-09-28 21:32:00,
2013-09-28 17:33:00,84.5,70.1,29.82,East,86,4.0,6.0,62,0.00,,SCT020,0.02,VWS V14.01,2013-09-28 21:33:00,
2013-09-28 17:34:00,84.5,70.1,29.82,North,10,7.0,7.0,62,0.00,,SCT020,0.02,VWS V14.01,2013-09-28 21:34:00,
2013-09-28 17:36:00,84.3,69.9,29.82,East,93,11.0,11.0,62,0.00,,SCT020,0.02,VWS V14.01,2013-09-28 21:36:00,
2013-09-28 17:41:00,84.0,69.6,29.82,East,97,2.0,9.0,62,0.00,,SCT020,0.02,VWS V14.01,2013-09-28 21:41:00,
2013-09-28 17:42:00,83.8,70.3,29.82,ENE,61,6.0,8.0,64,0.00,,SCT020,0.02,VWS V14.01,2013-09-28 21:42:00,
2013-09-28 17:43:00,83.8,70.3,29.82,ESE,102,4.0,9.0,64,0.00,,SCT020,0.02,VWS V14.01,2013-09-28 21:43:00,
2013-09-28 17:44:00,83.6,70.6,29.82,NE,51,8.0,8.0,65,0.00,,SCT020,0.02,VWS V14.01,2013-09-28 21:44:00,
2013-09-28 17:46:00,83.6,70.1,29.82,ESE,109,4.0,9.0,64,0.00,,SCT020,0.02,VWS V14.01,2013-09-28 21:46:00,
2013-09-28 17:48:00,83.6,70.6,29.82,ENE,64,7.0,9.0,65,0.00,,SCT020,0.02,VWS V14.01,2013-09-28 21:48:00,
2013-09-28 17:49:00,83.4,69.9,29.82,East,93,6.0,9.0,64,0.00,,SCT020,0.02,VWS V14.01,2013-09-28 21:49:00,
2013-09-28 17:54:00,83.4,70.4,29.82,SE,128,4.0,8.0,65,0.00,,SCT020,0.02,VWS V14.01,2013-09-28 21:54:00,
2013-09-28 17:55:00,83.4,69.9,29.82,ENE,73,7.0,7.0,64,0.00,,SCT020,0.02,VWS V14.01,2013-09-28 21:55:00,
2013-09-28 17:59:00,83.2,69.8,29.82,East,93,2.0,6.0,64,0.00,,SCT020,0.02,VWS V14.01,2013-09-28 21:59:00,
2013-09-28 18:00:00,83.2,69.8,29.82,ENE,66,6.0,6.0,64,0.00,,SCT020,0.02,VWS V14.01,2013-09-28 22:00:00,
2013-09-28 18:01:00,83.4,69.9,29.82,NE,51,4.0,6.0,64,0.00,,SCT020,0.02,VWS V14.01,2013-09-28 22:01:00,
2013-09-28 18:06:00,83.6,70.1,29.82,East,88,1.0,8.0,64,0.00,,SCT020,0.02,VWS V14.01,2013-09-28 22:06:00,
2013-09-28 18:07:00,83.6,70.1,29.82,East,88,6.0,8.0,64,0.00,,SCT020,0.02,VWS V14.01,2013-09-28 22:07:00,
2013-09-28 18:08:00,83.6,69.7,29.82,NE,55,8.0,9.0,63,0.00,,SCT020,0.02,VWS V14.01,2013-09-28 22:08:00,
2013-09-28 18:09:00,83.6,69.7,29.82,ESE,106,2.0,8.0,63,0.00,,SCT020,0.02,VWS V14.01,2013-09-28 22:09:00,
2013-09-28 18:11:00,83.4,69.0,29.82,ENE,66,4.0,8.0,62,0.00,,SCT020,0.02,VWS V14.01,2013-09-28 22:11:00,
2013-09-28 18:13:00,83.4,69.5,29.82,East,83,8.0,9.0,63,0.00,,SCT020,0.02,VWS V14.01,2013-09-28 22:13:00,
2013-09-28 18:17:00,83.0,69.1,29.82,East,89,4.0,6.0,63,0.00,,SCT020,0.02,VWS V14.01,2013-09-28 22:17:00,
2013-09-28 18:18:00,83.0,69.1,29.82,East,89,2.0,4.0,63,0.00,,SCT020,0.02,VWS V14.01,2013-09-28 22:18:00,
2013-09-28 18:22:00,83.0,69.1,29.82,East,79,0.0,2.0,63,0.00,,SCT020,0.02,VWS V14.01,2013-09-28 22:22:00,
2013-09-28 18:23:00,82.8,68.9,29.82,East,79,2.0,4.0,63,0.00,,SCT020,0.02,VWS V14.01,2013-09-28 22:23:00,
2013-09-28 18:25:00,82.8,68.9,29.82,ENE,76,1.0,6.0,63,0.00,,SCT020,0.02,VWS V14.01,2013-09-28 22:25:00,
2013-09-28 18:28:00,82.8,68.9,29.82,East,95,2.0,7.0,63,0.00,,SCT020,0.02,VWS V14.01,2013-09-28 22:28:00,
2013-09-28 18:29:00,82.8,69.4,29.82,NE,52,7.0,9.0,64,0.00,,SCT020,0.02,VWS V14.01,2013-09-28 22:29:00,
2013-09-28 18:31:00,82.6,69.2,29.83,East,88,1.0,7.0,64,0.00,,SCT020,0.02,VWS V14.01,2013-09-28 22:31:00,
2013-09-28 18:32:00,82.6,69.2,29.83,NE,48,1.0,2.0,64,0.00,,SCT020,0.02,VWS V14.01,2013-09-28 22:32:00,
2013-09-28 18:36:00,82.6,69.2,29.83,ENE,69,1.0,6.0,64,0.00,,SCT020,0.02,VWS V14.01,2013-09-28 22:36:00,
2013-09-28 18:37:00,82.6,69.2,29.83,ENE,73,6.0,6.0,64,0.00,,SCT020,0.02,VWS V14.01,2013-09-28 22:37:00,
2013-09-28 18:39:00,82.4,69.0,29.83,ENE,66,8.0,9.0,64,0.00,,SCT020,0.02,VWS V14.01,2013-09-28 22:39:00,
2013-09-28 18:44:00,82.4,68.6,29.83,ENE,73,7.0,8.0,63,0.00,,SCT020,0.02,VWS V14.01,2013-09-28 22:44:00,
2013-09-28 18:45:00,82.4,68.6,29.83,ENE,71,4.0,7.0,63,0.00,,SCT020,0.02,VWS V14.01,2013-09-28 22:45:00,
2013-09-28 18:46:00,82.4,68.6,29.83,NE,47,2.0,6.0,63,0.00,,SCT020,0.02,VWS V14.01,2013-09-28 22:46:00,
2013-09-28 18:50:00,82.4,69.0,29.83,ENE,73,1.0,6.0,64,0.00,,SCT020,0.02,VWS V14.01,2013-09-28 22:50:00,
2013-09-28 18:51:00,82.2,69.3,29.83,ENE,72,4.0,4.0,65,0.00,,SCT020,0.02,VWS V14.01,2013-09-28 22:51:00,
2013-09-28 18:56:00,82.2,69.3,29.83,ENE,62,4.0,7.0,65,0.00,,SCT020,0.02,VWS V14.01,2013-09-28 22:56:00,
2013-09-28 18:57:00,82.2,69.3,29.83,East,85,4.0,6.0,65,0.00,,SCT020,0.02,VWS V14.01,2013-09-28 22:57:00,
2013-09-28 18:58:00,82.2,69.3,29.83,ENE,75,4.0,6.0,65,0.00,,SCT020,0.02,VWS V14.01,2013-09-28 22:58:00,
2013-09-28 19:01:00,82.2,69.3,29.84,ENE,78,1.0,6.0,65,0.00,,SCT020,0.02,VWS V14.01,2013-09-28 23:01:00,
2013-09-28 19:05:00,82.2,69.3,29.84,ENE,68,4.0,8.0,65,0.00,,SCT020,0.02,VWS V14.01,2013-09-28 23:05:00,
2013-09-28 19:07:00,82.0,69.1,29.84,East,80,6.0,9.0,65,0.00,,SCT020,0.02,VWS V14.01,2013-09-28 23:07:00,
2013-09-28 19:08:00,82.0,69.1,29.84,NE,48,4.0,7.0,65,0.00,,SCT020,0.02,VWS V14.01,2013-09-28 23:08:00,
2013-09-28 19:11:00,81.8,68.9,29.84,NE,49,2.0,6.0,65,0.00,,SCT020,0.02,VWS V14.01,2013-09-28 23:11:00,
2013-09-28 19:14:00,81.4,68.5,29.84,NE,54,10.0,10.0,65,0.00,,SCT020,0.02,VWS V14.01,2013-09-28 23:14:00,
2013-09-28 19:17:00,81.2,68.8,29.84,ENE,66,4.0,6.0,66,0.00,,SCT020,0.02,VWS V14.01,2013-09-28 23:17:00,
2013-09-28 19:20:00,81.1,68.2,29.84,NNE,24,4.0,7.0,65,0.00,,SCT020,0.02,VWS V14.01,2013-09-28 23:20:00,
2013-09-28 19:22:00,80.9,68.0,29.84,NE,48,4.0,8.0,65,0.00,,SCT020,0.02,VWS V14.01,2013-09-28 23:22:00,
2013-09-28 19:23:00,80.9,68.0,29.84,NNE,25,6.0,7.0,65,0.00,,SCT020,0.02,VWS V14.01,2013-09-28 23:23:00,
2013-09-28 19:25:00,80.7,68.3,29.84,ENE,59,2.0,6.0,66,0.00,,SCT020,0.02,VWS V14.01,2013-09-28 23:25:00,
2013-09-28 19:30:00,80.5,68.5,29.84,ENE,68,1.0,2.0,67,0.00,,SCT020,0.02,VWS V14.01,2013-09-28 23:30:00,
2013-09-28 19:31:00,80.5,68.5,29.84,ENE,68,0.0,1.0,67,0.00,,SCT020,0.02,VWS V14.01,2013-09-28 23:31:00,
2013-09-28 19:35:00,80.5,69.0,29.84,NE,47,2.0,6.0,68,0.00,,SCT020,0.02,VWS V14.01,2013-09-28 23:35:00,
2013-09-28 19:36:00,80.5,69.4,29.84,NE,41,4.0,4.0,69,0.00,,SCT020,0.02,VWS V14.01,2013-09-28 23:36:00,
2013-09-28 19:38:00,80.5,69.4,29.84,NE,41,1.0,2.0,69,0.00,,SCT020,0.02,VWS V14.01,2013-09-28 23:38:00,
2013-09-28 19:42:00,80.3,69.2,29.84,NE,55,2.0,2.0,69,0.00,,SCT020,0.02,VWS V14.01,2013-09-28 23:42:00,
2013-09-28 19:43:00,80.3,69.2,29.84,ESE,119,1.0,2.0,69,0.00,,SCT020,0.02,VWS V14.01,2013-09-28 23:43:00,
2013-09-28 19:44:00,80.3,69.2,29.84,ESE,117,2.0,2.0,69,0.00,,SCT020,0.02,VWS V14.01,2013-09-28 23:44:00,
2013-09-28 19:45:00,80.3,69.2,29.84,ESE,117,0.0,2.0,69,0.00,,SCT020,0.02,VWS V14.01,2013-09-28 23:45:00,
2013-09-28 19:50:00,80.5,69.8,29.84,NE,52,4.0,4.0,70,0.00,,SCT020,0.02,VWS V14.01,2013-09-28 23:50:00,
2013-09-28 19:51:00,80.5,69.8,29.84,NE,49,2.0,7.0,70,0.00,,SCT020,0.02,VWS V14.01,2013-09-28 23:51:00,
2013-09-28 19:52:00,80.5,69.8,29.84,NNE,30,1.0,2.0,70,0.00,,SCT020,0.02,VWS V14.01,2013-09-28 23:52:00,
2013-09-28 19:54:00,80.5,69.8,29.84,NE,52,2.0,2.0,70,0.00,,SCT020,0.02,VWS V14.01,2013-09-28 23:54:00,
2013-09-28 19:56:00,80.5,69.8,29.84,ENE,68,2.0,4.0,70,0.00,,SCT020,0.02,VWS V14.01,2013-09-28 23:56:00,
2013-09-28 19:58:00,80.5,69.8,29.84,East,88,6.0,6.0,70,0.00,,SCT020,0.02,VWS V14.01,2013-09-28 23:58:00,
2013-09-28 20:00:00,80.7,70.0,29.85,ENE,75,2.0,6.0,70,0.00,,SCT020,0.02,VWS V14.01,2013-09-29 00:00:00,
2013-09-28 20:02:00,80.7,70.0,29.85,ENE,76,6.0,7.0,70,0.00,,SCT020,0.02,VWS V14.01,2013-09-29 00:02:00,
2013-09-28 20:03:00,80.7,70.0,29.85,East,85,6.0,8.0,70,0.00,,SCT020,0.02,VWS V14.01,2013-09-29 00:03:00,
2013-09-28 20:07:00,80.7,70.0,29.85,ENE,64,1.0,2.0,70,0.00,,SCT020,0.02,VWS V14.01,2013-09-29 00:07:00,
2013-09-28 20:08:00,80.7,70.0,29.85,NE,42,6.0,6.0,70,0.00,,SCT020,0.02,VWS V14.01,2013-09-29 00:08:00,
2013-09-28 20:10:00,80.7,69.6,29.85,ENE,69,6.0,8.0,69,0.00,,SCT020,0.02,VWS V14.01,2013-09-29 00:10:00,
2013-09-28 20:12:00,80.5,69.4,29.85,ENE,61,4.0,6.0,69,0.00,,SCT020,0.02,VWS V14.01,2013-09-29 00:12:00,
2013-09-28 20:13:00,80.3,69.2,29.85,ENE,65,2.0,6.0,69,0.00,,SCT020,0.02,VWS V14.01,2013-09-29 00:13:00,
2013-09-28 20:15:00,80.3,69.2,29.85,ENE,69,4.0,7.0,69,0.00,,SCT020,0.02,VWS V14.01,2013-09-29 00:15:00,
2013-09-28 20:16:00,80.3,69.2,29.85,East,90,2.0,4.0,69,0.00,,SCT020,0.02,VWS V14.01,2013-09-29 00:16:00,
2013-09-28 20:17:00,80.1,69.0,29.85,East,86,2.0,4.0,69,0.00,,SCT020,0.02,VWS V14.01,2013-09-29 00:17:00,
2013-09-28 20:20:00,80.1,69.0,29.85,NE,42,6.0,9.0,69,0.00,,SCT020,0.02,VWS V14.01,2013-09-29 00:20:00,
2013-09-28 20:22:00,79.9,68.8,29.85,ENE,66,2.0,7.0,69,0.00,,SCT020,0.02,VWS V14.01,2013-09-29 00:22:00,
2013-09-28 20:23:00,79.9,68.8,29.85,ENE,58,7.0,10.0,69,0.00,,SCT020,0.02,VWS V14.01,2013-09-29 00:23:00,
2013-09-28 20:26:00,79.9,68.8,29.85,East,82,1.0,7.0,69,0.00,,SCT020,0.02,VWS V14.01,2013-09-29 00:26:00,
2013-09-28 20:28:00,79.8,68.7,29.85,NNE,30,4.0,8.0,69,0.00,,SCT020,0.02,VWS V14.01,2013-09-29 00:28:00,
2013-09-28 20:29:00,79.8,68.7,29.85,ESE,107,6.0,7.0,69,0.00,,SCT020,0.02,VWS V14.01,2013-09-29 00:29:00,
2013-09-28 20:33:00,79.4,68.3,29.86,ENE,68,9.0,9.0,69,0.00,,SCT020,0.02,VWS V14.01,2013-09-29 00:33:00,
2013-09-28 20:35:00,78.8,67.8,29.86,NE,55,4.0,7.0,69,0.01,,SCT020,0.03,VWS V14.01,2013-09-29 00:35:00,
2013-09-28 20:36:00,78.5,70.3,29.86,ENE,75,2.0,6.0,76,0.01,,SCT020,0.03,VWS V14.01,2013-09-29 00:36:00,
2013-09-28 20:37:00,78.3,70.1,29.86,ENE,65,6.0,7.0,76,0.01,,SCT020,0.03,VWS V14.01,2013-09-29 00:37:00,
2013-09-28 20:39:00,77.7,69.9,29.86,ESE,114,6.0,8.0,77,0.01,,SCT020,0.03,VWS V14.01,2013-09-29 00:39:00,
2013-09-28 20:41:00,77.4,70.0,29.86,ESE,116,2.0,6.0,78,0.01,,SCT020,0.03,VWS V14.01,2013-09-29 00:41:00,
2013-09-28 20:43:00,77.2,70.2,29.86,East,96,4.0,4.0,79,0.01,,SCT020,0.03,VWS V14.01,2013-09-29 00:43:00,
2013-09-28 20:46:00,76.8,70.5,29.87,ESE,113,6.0,6.0,81,0.01,,SCT020,0.03,VWS V14.01,2013-09-29 00:46:00,
2013-09-28 20:48:00,76.7,70.4,29.87,East,89,1.0,2.0,81,0.01,,SCT020,0.03,VWS V14.01,2013-09-29 00:48:00,
2013-09-28 20:52:00,76.5,71.0,29.87,East,99,6.0,6.0,83,0.01,,SCT020,0.03,VWS V14.01,2013-09-29 00:52:00,
2013-09-28 20:53:00,76.5,71.0,29.87,ESE,112,4.0,6.0,83,0.01,,SCT020,0.03,VWS V14.01,2013-09-29 00:53:00,
2013-09-28 20:55:00,76.3,70.8,29.87,East,93,2.0,4.0,83,0.01,,SCT020,0.03,VWS V14.01,2013-09-29 00:55:00,
2013-09-28 20:57:00,76.3,70.8,29.87,SE,127,1.0,2.0,83,0.01,,SCT020,0.03,VWS V14.01,2013-09-29 00:57:00,
2013-09-28 21:00:00,76.3,71.1,29.87,ESE,120,1.0,2.0,84,0.01,,SCT020,0.03,VWS V14.01,2013-09-29 01:00:00,
2013-09-28 21:01:00,76.3,71.1,29.87,ESE,120,2.0,2.0,84,0.01,,SCT020,0.03,VWS V14.01,2013-09-29 01:01:00,
2013-09-28 21:03:00,76.3,71.1,29.87,East,97,4.0,4.0,84,0.01,,SCT020,0.03,VWS V14.01,2013-09-29 01:03:00,
2013-09-28 21:05:00,76.3,71.1,29.87,East,97,0.0,1.0,84,0.01,,SCT020,0.03,VWS V14.01,2013-09-29 01:05:00,
2013-09-28 21:06:00,76.3,71.1,29.87,East,97,2.0,2.0,84,0.01,,SCT020,0.03,VWS V14.01,2013-09-29 01:06:00,
2013-09-28 21:08:00,76.3,71.1,29.87,East,97,1.0,1.0,84,0.01,,SCT020,0.03,VWS V14.01,2013-09-29 01:08:00,
2013-09-28 21:13:00,76.5,71.3,29.87,East,97,1.0,2.0,84,0.01,,SCT020,0.03,VWS V14.01,2013-09-29 01:13:00,
2013-09-28 21:14:00,76.7,71.5,29.87,East,97,1.0,2.0,84,0.01,,SCT020,0.03,VWS V14.01,2013-09-29 01:14:00,
2013-09-28 21:18:00,76.7,71.5,29.87,East,89,1.0,2.0,84,0.01,,SCT020,0.03,VWS V14.01,2013-09-29 01:18:00,
2013-09-28 21:20:00,76.8,71.6,29.87,East,89,1.0,1.0,84,0.01,,SCT020,0.03,VWS V14.01,2013-09-29 01:20:00,
2013-09-28 21:22:00,76.8,71.2,29.87,East,89,0.0,1.0,83,0.01,,SCT020,0.03,VWS V14.01,2013-09-29 01:22:00,
2013-09-28 21:24:00,76.8,71.2,29.87,East,89,2.0,2.0,83,0.01,,SCT020,0.03,VWS V14.01,2013-09-29 01:24:00,
2013-09-28 21:25:00,76.8,71.2,29.87,East,89,1.0,2.0,83,0.01,,SCT020,0.03,VWS V14.01,2013-09-29 01:25:00,
2013-09-28 21:28:00,76.8,71.2,29.87,East,89,0.0,0.0,83,0.01,,SCT020,0.03,VWS V14.01,2013-09-29 01:28:00,
2013-09-28 21:30:00,76.8,71.2,29.87,East,89,0.0,0.0,83,0.01,,SCT020,0.03,VWS V14.01,2013-09-29 01:30:00,
2013-09-28 21:33:00,76.8,71.2,29.87,East,89,0.0,0.0,83,0.01,,SCT020,0.03,VWS V14.01,2013-09-29 01:33:00,
2013-09-28 21:35:00,77.0,71.4,29.87,East,89,1.0,4.0,83,0.00,,SCT020,0.03,VWS V14.01,2013-09-29 01:35:00,
2013-09-28 21:38:00,77.0,71.1,29.87,North,8,6.0,6.0,82,0.00,,SCT020,0.03,VWS V14.01,2013-09-29 01:38:00,
2013-09-28 21:39:00,77.0,70.7,29.87,North,8,2.0,6.0,81,0.00,,SCT020,0.03,VWS V14.01,2013-09-29 01:39:00,
2013-09-28 21:43:00,77.4,71.1,29.87,NNE,23,7.0,8.0,81,0.00,,SCT020,0.03,VWS V14.01,2013-09-29 01:43:00,
2013-09-28 21:44:00,77.4,70.8,29.87,NE,54,4.0,9.0,80,0.00,,SCT020,0.03,VWS V14.01,2013-09-29 01:44:00,
2013-09-28 21:46:00,77.4,70.8,29.89,East,82,1.0,4.0,80,0.00,,SCT020,0.03,VWS V14.01,2013-09-29 01:46:00,
2013-09-28 21:49:00,77.2,70.2,29.89,ENE,72,6.0,10.0,79,0.00,,SCT020,0.03,VWS V14.01,2013-09-29 01:49:00,
2013-09-28 21:50:00,77.2,70.2,29.89,NNE,18,6.0,9.0,79,0.00,,SCT020,0.03,VWS V14.01,2013-09-29 01:50:00,
2013-09-28 21:53:00,76.8,69.4,29.89,NNE,21,4.0,6.0,78,0.00,,SCT020,0.03,VWS V14.01,2013-09-29 01:53:00,
2013-09-28 21:55:00,76.5,69.1,29.89,NE,48,4.0,8.0,78,0.01,,SCT020,0.04,VWS V14.01,2013-09-29 01:55:00,
2013-09-28 21:56:00,76.3,68.9,29.89,NE,47,2.0,7.0,78,0.01,,SCT020,0.04,VWS V14.01,2013-09-29 01:56:00,
2013-09-28 21:58:00,76.1,69.1,29.89,ENE,73,4.0,7.0,79,0.03,,SCT020,0.06,VWS V14.01,2013-09-29 01:58:00,
2013-09-28 22:01:00,75.6,69.0,29.89,NE,56,2.0,2.0,80,0.05,,SCT020,0.08,VWS V14.01,2013-09-29 02:01:00,
2013-09-28 22:04:00,75.3,69.1,29.89,ENE,58,0.0,2.0,81,0.07,,SCT020,0.10,VWS V14.01,2013-09-29 02:04:00,
2013-09-28 22:06:00,75.1,69.2,29.89,ENE,58,0.0,0.0,82,0.07,,SCT020,0.10,VWS V14.01,2013-09-29 02:06:00,
2013-09-28 22:07:00,75.1,69.6,29.89,ENE,58,1.0,1.0,83,0.07,,SCT020,0.10,VWS V14.01,2013-09-29 02:07:00,
2013-09-28 22:11:00,74.9,69.4,29.89,ENE,58,0.0,0.0,83,0.07,,SCT020,0.10,VWS V14.01,2013-09-29 02:11:00,
2013-09-28 22:12:00,74.9,69.4,29.89,ENE,58,0.0,0.0,83,0.07,,SCT020,0.10,VWS V14.01,2013-09-29 02:12:00,
2013-09-28 22:15:00,74.9,69.7,29.88,ENE,58,0.0,0.0,84,0.07,,SCT020,0.10,VWS V14.01,2013-09-29 02:15:00,
2013-09-28 22:18:00,74.9,69.7,29.88,ENE,58,1.0,1.0,84,0.07,,SCT020,0.10,VWS V14.01,2013-09-29 02:18:00,
2013-09-28 22:20:00,74.9,69.7,29.88,ENE,58,1.0,1.0,84,0.07,,SCT020,0.10,VWS V14.01,2013-09-29 02:20:00,
2013-09-28 22:23:00,74.9,69.7,29.88,ENE,58,0.0,0.0,84,0.07,,SCT020,0.10,VWS V14.01,2013-09-29 02:23:00,
2013-09-28 22:24:00,74.9,69.7,29.88,ENE,58,0.0,0.0,84,0.07,,SCT020,0.10,VWS V14.01,2013-09-29 02:24:00,
2013-09-28 22:30:00,74.9,70.4,29.89,ENE,58,1.0,1.0,86,0.07,,SCT020,0.10,VWS V14.01,2013-09-29 02:30:00,
2013-09-28 22:31:00,74.7,70.2,29.89,NE,56,0.0,2.0,86,0.07,,SCT020,0.10,VWS V14.01,2013-09-29 02:31:00,
2013-09-28 22:35:00,74.7,70.2,29.89,NNE,30,7.0,13.0,86,0.07,,SCT020,0.10,VWS V14.01,2013-09-29 02:35:00,
2013-09-28 22:36:00,74.9,70.4,29.89,ENE,59,8.0,10.0,86,0.07,,SCT020,0.10,VWS V14.01,2013-09-29 02:36:00,
2013-09-28 22:42:00,74.7,70.2,29.89,ENE,75,7.0,11.0,86,0.15,,SCT020,0.18,VWS V14.01,2013-09-29 02:42:00,
2013-09-28 22:43:00,74.6,70.5,29.89,East,95,2.0,10.0,87,0.17,,SCT020,0.20,VWS V14.01,2013-09-29 02:43:00,
2013-09-28 22:47:00,74.4,70.3,29.89,East,85,8.0,8.0,87,0.25,,SCT020,0.28,VWS V14.01,2013-09-29 02:47:00,
2013-09-28 22:48:00,74.2,70.4,29.89,East,85,6.0,8.0,88,0.27,,SCT020,0.30,VWS V14.01,2013-09-29 02:48:00,
2013-09-28 22:52:00,73.7,69.9,29.89,East,99,2.0,4.0,88,0.34,,SCT020,0.37,VWS V14.01,2013-09-29 02:52:00,
2013-09-28 22:54:00,73.5,70.1,29.89,ESE,102,2.0,2.0,89,0.35,,SCT020,0.38,VWS V14.01,2013-09-29 02:54:00,
2013-09-28 22:55:00,73.5,70.1,29.89,SE,137,1.0,7.0,89,0.35,,SCT020,0.38,VWS V14.01,2013-09-29 02:55:00,
2013-09-28 22:58:00,73.5,70.1,29.89,ESE,112,0.0,4.0,89,0.35,,SCT020,0.40,VWS V14.01,2013-09-29 02:58:00,
2013-09-28 23:00:00,73.5,70.1,29.89,ESE,112,2.0,2.0,89,0.33,,SCT020,0.40,VWS V14.01,2013-09-29 03:00:00,
2013-09-28 23:04:00,73.7,70.6,29.89,East,99,2.0,4.0,90,0.34,,SCT020,0.43,VWS V14.01,2013-09-29 03:04:00,
2013-09-28 23:05:00,73.9,70.8,29.89,East,83,2.0,4.0,90,0.36,,SCT020,0.46,VWS V14.01,2013-09-29 03:05:00,
2013-09-28 23:06:00,73.9,70.8,29.89,East,83,1.0,4.0,90,0.37,,SCT020,0.47,VWS V14.01,2013-09-29 03:06:00,
2013-09-28 23:10:00,73.9,70.8,29.89,NE,55,6.0,9.0,90,0.45,,SCT020,0.55,VWS V14.01,2013-09-29 03:10:00,
2013-09-28 23:13:00,73.7,70.6,29.89,NNE,32,2.0,4.0,90,0.55,,SCT020,0.65,VWS V14.01,2013-09-29 03:13:00,
2013-09-28 23:14:00,73.7,70.6,29.89,East,82,2.0,4.0,90,0.57,,SCT020,0.67,VWS V14.01,2013-09-29 03:14:00,
2013-09-28 23:17:00,73.7,70.9,29.89,ESE,123,2.0,4.0,91,0.66,,SCT020,0.76,VWS V14.01,2013-09-29 03:17:00,
2013-09-28 23:19:00,73.7,70.9,29.89,ESE,102,1.0,4.0,91,0.71,,SCT020,0.81,VWS V14.01,2013-09-29 03:19:00,
2013-09-28 23:22:00,73.5,70.7,29.89,East,93,2.0,2.0,91,0.78,,SCT020,0.88,VWS V14.01,2013-09-29 03:22:00,
2013-09-28 23:25:00,73.2,70.1,29.89,SSE,165,2.0,7.0,90,0.81,,SCT020,0.91,VWS V14.01,2013-09-29 03:25:00,
2013-09-28 23:31:00,73.0,70.2,29.89,SSE,147,1.0,1.0,91,0.89,,SCT020,0.99,VWS V14.01,2013-09-29 03:31:00,
2013-09-28 23:32:00,73.0,70.2,29.89,SE,145,2.0,2.0,91,0.90,,SCT020,1.00,VWS V14.01,2013-09-29 03:32:00,
2013-09-28 23:37:00,72.8,70.0,29.89,SE,145,0.0,0.0,91,0.92,,SCT020,1.02,VWS V14.01,2013-09-29 03:37:00,
2013-09-28 23:38:00,72.8,70.0,29.89,SE,145,0.0,1.0,91,0.92,,SCT020,1.02,VWS V14.01,2013-09-29 03:38:00,
2013-09-28 23:42:00,73.0,70.2,29.89,SE,145,0.0,1.0,91,0.86,,SCT020,1.03,VWS V14.01,2013-09-29 03:42:00,
2013-09-28 23:45:00,73.0,70.2,29.89,SE,145,0.0,0.0,91,0.83,,SCT020,1.03,VWS V14.01,2013-09-29 03:45:00,
2013-09-28 23:47:00,73.0,70.2,29.89,SE,145,0.0,1.0,91,0.77,,SCT020,1.04,VWS V14.01,2013-09-29 03:47:00,
2013-09-28 23:51:00,73.0,70.5,29.89,SE,144,1.0,1.0,92,0.75,,SCT020,1.06,VWS V14.01,2013-09-29 03:51:00,
2013-09-28 23:53:00,73.2,70.7,29.89,West,270,6.0,6.0,92,0.72,,SCT020,1.09,VWS V14.01,2013-09-29 03:53:00,
2013-09-28 23:58:00,73.3,70.8,29.89,WNW,294,1.0,1.0,92,0.74,,SCT020,1.13,VWS V14.01,2013-09-29 03:58:00,